<?xml version="1.0" encoding="UTF-8" standalone="no" ?>
<gpx xmlns="http://www.topografix.com/GPX/1/1" xmlns:xsi="http://www.w3.org/2001/XMLSchema-instance" xsi:schemaLocation="http://www.topografix.com/GPX/1/1 http://www.topografix.com/GPX/1/1/gpx.xsd" version="1.1" creator="VisuGPX - https://www.visugpx.com">
  <metadata>
    <name>ARVERT  (SPT ROYAN) 16/11/2011</name>
    <desc><![CDATA[Walkmeter Marche 15 nov. 2012 14:51:19]]></desc>
  </metadata>
  <trk>
    <name><![CDATA[Nouveau parcours]]></name>
    <trkseg>
      <trkpt lat="45.74135" lon="-1.12494">
        <ele>27.4</ele>
        <time>2012-11-15T13:51:33Z</time>
      </trkpt>
      <trkpt lat="45.74135" lon="-1.12494">
        <ele>10.3</ele>
        <time>2012-11-15T13:52:40Z</time>
      </trkpt>
      <trkpt lat="45.74136" lon="-1.12496">
        <ele>10.2</ele>
        <time>2012-11-15T13:52:42Z</time>
      </trkpt>
      <trkpt lat="45.74126" lon="-1.12488">
        <ele>10.2</ele>
        <time>2012-11-15T13:52:52Z</time>
      </trkpt>
      <trkpt lat="45.74115" lon="-1.125">
        <ele>10.1</ele>
        <time>2012-11-15T13:53:08Z</time>
      </trkpt>
      <trkpt lat="45.74102" lon="-1.12508">
        <ele>10</ele>
        <time>2012-11-15T13:53:18Z</time>
      </trkpt>
      <trkpt lat="45.74092" lon="-1.12524">
        <ele>10</ele>
        <time>2012-11-15T13:53:32Z</time>
      </trkpt>
      <trkpt lat="45.74088" lon="-1.12532">
        <ele>9.9</ele>
        <time>2012-11-15T13:53:41Z</time>
      </trkpt>
      <trkpt lat="45.74075" lon="-1.12538">
        <ele>9.9</ele>
        <time>2012-11-15T13:53:51Z</time>
      </trkpt>
      <trkpt lat="45.74062" lon="-1.12547">
        <ele>9.8</ele>
        <time>2012-11-15T13:54:02Z</time>
      </trkpt>
      <trkpt lat="45.74048" lon="-1.12548">
        <ele>9.7</ele>
        <time>2012-11-15T13:54:14Z</time>
      </trkpt>
      <trkpt lat="45.74034" lon="-1.12555">
        <ele>9.6</ele>
        <time>2012-11-15T13:54:28Z</time>
      </trkpt>
      <trkpt lat="45.74023" lon="-1.12565">
        <ele>9.6</ele>
        <time>2012-11-15T13:54:41Z</time>
      </trkpt>
      <trkpt lat="45.7401" lon="-1.12575">
        <ele>9.5</ele>
        <time>2012-11-15T13:54:52Z</time>
      </trkpt>
      <trkpt lat="45.73988" lon="-1.12583">
        <ele>9.4</ele>
        <time>2012-11-15T13:55:13Z</time>
      </trkpt>
      <trkpt lat="45.73988" lon="-1.12583">
        <ele>9.1</ele>
        <time>2012-11-15T13:56:03Z</time>
      </trkpt>
      <trkpt lat="45.7398" lon="-1.12582">
        <ele>9.1</ele>
        <time>2012-11-15T13:56:09Z</time>
      </trkpt>
      <trkpt lat="45.73966" lon="-1.12573">
        <ele>9</ele>
        <time>2012-11-15T13:56:23Z</time>
      </trkpt>
      <trkpt lat="45.73952" lon="-1.12569">
        <ele>8.9</ele>
        <time>2012-11-15T13:56:37Z</time>
      </trkpt>
      <trkpt lat="45.73934" lon="-1.12567">
        <ele>8.8</ele>
        <time>2012-11-15T13:56:52Z</time>
      </trkpt>
      <trkpt lat="45.7392" lon="-1.12567">
        <ele>8.8</ele>
        <time>2012-11-15T13:57:04Z</time>
      </trkpt>
      <trkpt lat="45.73908" lon="-1.12576">
        <ele>8.6</ele>
        <time>2012-11-15T13:57:24Z</time>
      </trkpt>
      <trkpt lat="45.73907" lon="-1.12596">
        <ele>8.6</ele>
        <time>2012-11-15T13:57:38Z</time>
      </trkpt>
      <trkpt lat="45.73909" lon="-1.12617">
        <ele>8.5</ele>
        <time>2012-11-15T13:57:51Z</time>
      </trkpt>
      <trkpt lat="45.73911" lon="-1.12637">
        <ele>8.4</ele>
        <time>2012-11-15T13:58:03Z</time>
      </trkpt>
      <trkpt lat="45.73918" lon="-1.12657">
        <ele>8.3</ele>
        <time>2012-11-15T13:58:20Z</time>
      </trkpt>
      <trkpt lat="45.7392" lon="-1.1268">
        <ele>8.2</ele>
        <time>2012-11-15T13:58:35Z</time>
      </trkpt>
      <trkpt lat="45.73923" lon="-1.12702">
        <ele>8.2</ele>
        <time>2012-11-15T13:58:48Z</time>
      </trkpt>
      <trkpt lat="45.73927" lon="-1.12721">
        <ele>8.1</ele>
        <time>2012-11-15T13:59:02Z</time>
      </trkpt>
      <trkpt lat="45.7393" lon="-1.12741">
        <ele>8</ele>
        <time>2012-11-15T13:59:13Z</time>
      </trkpt>
      <trkpt lat="45.73926" lon="-1.12761">
        <ele>8</ele>
        <time>2012-11-15T13:59:25Z</time>
      </trkpt>
      <trkpt lat="45.73918" lon="-1.12778">
        <ele>7.9</ele>
        <time>2012-11-15T13:59:36Z</time>
      </trkpt>
      <trkpt lat="45.73913" lon="-1.12797">
        <ele>7.8</ele>
        <time>2012-11-15T13:59:48Z</time>
      </trkpt>
      <trkpt lat="45.73911" lon="-1.12816">
        <ele>7.8</ele>
        <time>2012-11-15T13:59:59Z</time>
      </trkpt>
      <trkpt lat="45.73908" lon="-1.12837">
        <ele>7.7</ele>
        <time>2012-11-15T14:00:11Z</time>
      </trkpt>
      <trkpt lat="45.73905" lon="-1.12856">
        <ele>7.6</ele>
        <time>2012-11-15T14:00:26Z</time>
      </trkpt>
      <trkpt lat="45.739" lon="-1.12875">
        <ele>7.5</ele>
        <time>2012-11-15T14:00:40Z</time>
      </trkpt>
      <trkpt lat="45.73894" lon="-1.12893">
        <ele>7.5</ele>
        <time>2012-11-15T14:00:51Z</time>
      </trkpt>
      <trkpt lat="45.7389" lon="-1.12916">
        <ele>7.4</ele>
        <time>2012-11-15T14:01:03Z</time>
      </trkpt>
      <trkpt lat="45.73884" lon="-1.12939">
        <ele>7.3</ele>
        <time>2012-11-15T14:01:17Z</time>
      </trkpt>
      <trkpt lat="45.73876" lon="-1.12956">
        <ele>7.2</ele>
        <time>2012-11-15T14:01:32Z</time>
      </trkpt>
      <trkpt lat="45.73868" lon="-1.12975">
        <ele>7.2</ele>
        <time>2012-11-15T14:01:46Z</time>
      </trkpt>
      <trkpt lat="45.73864" lon="-1.12994">
        <ele>7.1</ele>
        <time>2012-11-15T14:02:02Z</time>
      </trkpt>
      <trkpt lat="45.73857" lon="-1.13012">
        <ele>7</ele>
        <time>2012-11-15T14:02:13Z</time>
      </trkpt>
      <trkpt lat="45.73851" lon="-1.13031">
        <ele>6.9</ele>
        <time>2012-11-15T14:02:25Z</time>
      </trkpt>
      <trkpt lat="45.73849" lon="-1.13054">
        <ele>6.9</ele>
        <time>2012-11-15T14:02:36Z</time>
      </trkpt>
      <trkpt lat="45.73848" lon="-1.13075">
        <ele>6.8</ele>
        <time>2012-11-15T14:02:49Z</time>
      </trkpt>
      <trkpt lat="45.73848" lon="-1.13094">
        <ele>6.7</ele>
        <time>2012-11-15T14:03:00Z</time>
      </trkpt>
      <trkpt lat="45.7385" lon="-1.13113">
        <ele>6.7</ele>
        <time>2012-11-15T14:03:10Z</time>
      </trkpt>
      <trkpt lat="45.73851" lon="-1.13134">
        <ele>6.6</ele>
        <time>2012-11-15T14:03:21Z</time>
      </trkpt>
      <trkpt lat="45.73853" lon="-1.13154">
        <ele>6.5</ele>
        <time>2012-11-15T14:03:32Z</time>
      </trkpt>
      <trkpt lat="45.73859" lon="-1.13175">
        <ele>6.5</ele>
        <time>2012-11-15T14:03:44Z</time>
      </trkpt>
      <trkpt lat="45.73864" lon="-1.13194">
        <ele>6.4</ele>
        <time>2012-11-15T14:03:56Z</time>
      </trkpt>
      <trkpt lat="45.73869" lon="-1.13212">
        <ele>6.3</ele>
        <time>2012-11-15T14:04:08Z</time>
      </trkpt>
      <trkpt lat="45.73873" lon="-1.13232">
        <ele>6.3</ele>
        <time>2012-11-15T14:04:19Z</time>
      </trkpt>
      <trkpt lat="45.7388" lon="-1.1325">
        <ele>6.2</ele>
        <time>2012-11-15T14:04:31Z</time>
      </trkpt>
      <trkpt lat="45.73886" lon="-1.13268">
        <ele>6.1</ele>
        <time>2012-11-15T14:04:42Z</time>
      </trkpt>
      <trkpt lat="45.73892" lon="-1.13286">
        <ele>6.1</ele>
        <time>2012-11-15T14:04:54Z</time>
      </trkpt>
      <trkpt lat="45.73898" lon="-1.13304">
        <ele>6</ele>
        <time>2012-11-15T14:05:05Z</time>
      </trkpt>
      <trkpt lat="45.73905" lon="-1.13322">
        <ele>5.9</ele>
        <time>2012-11-15T14:05:20Z</time>
      </trkpt>
      <trkpt lat="45.73911" lon="-1.13342">
        <ele>5.9</ele>
        <time>2012-11-15T14:05:31Z</time>
      </trkpt>
      <trkpt lat="45.73918" lon="-1.13361">
        <ele>5.8</ele>
        <time>2012-11-15T14:05:45Z</time>
      </trkpt>
      <trkpt lat="45.73924" lon="-1.13384">
        <ele>5.7</ele>
        <time>2012-11-15T14:05:55Z</time>
      </trkpt>
      <trkpt lat="45.73932" lon="-1.13401">
        <ele>5.7</ele>
        <time>2012-11-15T14:06:07Z</time>
      </trkpt>
      <trkpt lat="45.73941" lon="-1.13417">
        <ele>5.6</ele>
        <time>2012-11-15T14:06:19Z</time>
      </trkpt>
      <trkpt lat="45.73952" lon="-1.1343">
        <ele>5.5</ele>
        <time>2012-11-15T14:06:30Z</time>
      </trkpt>
      <trkpt lat="45.73963" lon="-1.13443">
        <ele>5.5</ele>
        <time>2012-11-15T14:06:41Z</time>
      </trkpt>
      <trkpt lat="45.73974" lon="-1.13456">
        <ele>5.4</ele>
        <time>2012-11-15T14:06:50Z</time>
      </trkpt>
      <trkpt lat="45.73986" lon="-1.13467">
        <ele>5.4</ele>
        <time>2012-11-15T14:07:02Z</time>
      </trkpt>
      <trkpt lat="45.73996" lon="-1.13482">
        <ele>5.3</ele>
        <time>2012-11-15T14:07:16Z</time>
      </trkpt>
      <trkpt lat="45.74007" lon="-1.13494">
        <ele>5.2</ele>
        <time>2012-11-15T14:07:29Z</time>
      </trkpt>
      <trkpt lat="45.74018" lon="-1.13506">
        <ele>5.1</ele>
        <time>2012-11-15T14:07:41Z</time>
      </trkpt>
      <trkpt lat="45.7403" lon="-1.13523">
        <ele>5</ele>
        <time>2012-11-15T14:07:56Z</time>
      </trkpt>
      <trkpt lat="45.74039" lon="-1.1354">
        <ele>5</ele>
        <time>2012-11-15T14:08:11Z</time>
      </trkpt>
      <trkpt lat="45.74046" lon="-1.13558">
        <ele>4.9</ele>
        <time>2012-11-15T14:08:23Z</time>
      </trkpt>
      <trkpt lat="45.74053" lon="-1.13575">
        <ele>4.8</ele>
        <time>2012-11-15T14:08:35Z</time>
      </trkpt>
      <trkpt lat="45.74061" lon="-1.13592">
        <ele>4.8</ele>
        <time>2012-11-15T14:08:47Z</time>
      </trkpt>
      <trkpt lat="45.74068" lon="-1.1361">
        <ele>4.7</ele>
        <time>2012-11-15T14:08:58Z</time>
      </trkpt>
      <trkpt lat="45.74078" lon="-1.13625">
        <ele>4.6</ele>
        <time>2012-11-15T14:09:13Z</time>
      </trkpt>
      <trkpt lat="45.74085" lon="-1.13643">
        <ele>4.5</ele>
        <time>2012-11-15T14:09:24Z</time>
      </trkpt>
      <trkpt lat="45.74094" lon="-1.13657">
        <ele>4.5</ele>
        <time>2012-11-15T14:09:36Z</time>
      </trkpt>
      <trkpt lat="45.741" lon="-1.13675">
        <ele>4.4</ele>
        <time>2012-11-15T14:09:50Z</time>
      </trkpt>
      <trkpt lat="45.74108" lon="-1.13692">
        <ele>4.3</ele>
        <time>2012-11-15T14:10:02Z</time>
      </trkpt>
      <trkpt lat="45.74114" lon="-1.13709">
        <ele>4.3</ele>
        <time>2012-11-15T14:10:13Z</time>
      </trkpt>
      <trkpt lat="45.74123" lon="-1.13726">
        <ele>4.2</ele>
        <time>2012-11-15T14:10:24Z</time>
      </trkpt>
      <trkpt lat="45.7413" lon="-1.13742">
        <ele>4.1</ele>
        <time>2012-11-15T14:10:34Z</time>
      </trkpt>
      <trkpt lat="45.74137" lon="-1.13761">
        <ele>4.1</ele>
        <time>2012-11-15T14:10:47Z</time>
      </trkpt>
      <trkpt lat="45.74146" lon="-1.13776">
        <ele>4</ele>
        <time>2012-11-15T14:11:00Z</time>
      </trkpt>
      <trkpt lat="45.74154" lon="-1.13794">
        <ele>3.9</ele>
        <time>2012-11-15T14:11:10Z</time>
      </trkpt>
      <trkpt lat="45.74161" lon="-1.13811">
        <ele>3.9</ele>
        <time>2012-11-15T14:11:23Z</time>
      </trkpt>
      <trkpt lat="45.74169" lon="-1.13827">
        <ele>3.8</ele>
        <time>2012-11-15T14:11:35Z</time>
      </trkpt>
      <trkpt lat="45.74177" lon="-1.13844">
        <ele>3.7</ele>
        <time>2012-11-15T14:11:46Z</time>
      </trkpt>
      <trkpt lat="45.74185" lon="-1.13862">
        <ele>3.7</ele>
        <time>2012-11-15T14:11:58Z</time>
      </trkpt>
      <trkpt lat="45.74193" lon="-1.13878">
        <ele>3.6</ele>
        <time>2012-11-15T14:12:10Z</time>
      </trkpt>
      <trkpt lat="45.74201" lon="-1.13894">
        <ele>3.5</ele>
        <time>2012-11-15T14:12:20Z</time>
      </trkpt>
      <trkpt lat="45.74208" lon="-1.1391">
        <ele>3.5</ele>
        <time>2012-11-15T14:12:31Z</time>
      </trkpt>
      <trkpt lat="45.74215" lon="-1.13928">
        <ele>3.4</ele>
        <time>2012-11-15T14:12:42Z</time>
      </trkpt>
      <trkpt lat="45.74223" lon="-1.13946">
        <ele>3.4</ele>
        <time>2012-11-15T14:12:53Z</time>
      </trkpt>
      <trkpt lat="45.74231" lon="-1.13963">
        <ele>3.3</ele>
        <time>2012-11-15T14:13:06Z</time>
      </trkpt>
      <trkpt lat="45.74239" lon="-1.13978">
        <ele>3.2</ele>
        <time>2012-11-15T14:13:16Z</time>
      </trkpt>
      <trkpt lat="45.74246" lon="-1.13995">
        <ele>3.2</ele>
        <time>2012-11-15T14:13:27Z</time>
      </trkpt>
      <trkpt lat="45.74253" lon="-1.14013">
        <ele>3.1</ele>
        <time>2012-11-15T14:13:39Z</time>
      </trkpt>
      <trkpt lat="45.7426" lon="-1.14031">
        <ele>3</ele>
        <time>2012-11-15T14:13:50Z</time>
      </trkpt>
      <trkpt lat="45.74267" lon="-1.14049">
        <ele>3</ele>
        <time>2012-11-15T14:14:01Z</time>
      </trkpt>
      <trkpt lat="45.74276" lon="-1.14063">
        <ele>2.9</ele>
        <time>2012-11-15T14:14:13Z</time>
      </trkpt>
      <trkpt lat="45.74284" lon="-1.14078">
        <ele>2.8</ele>
        <time>2012-11-15T14:14:25Z</time>
      </trkpt>
      <trkpt lat="45.74293" lon="-1.14094">
        <ele>2.8</ele>
        <time>2012-11-15T14:14:36Z</time>
      </trkpt>
      <trkpt lat="45.74301" lon="-1.14111">
        <ele>2.7</ele>
        <time>2012-11-15T14:14:47Z</time>
      </trkpt>
      <trkpt lat="45.7431" lon="-1.14132">
        <ele>2.6</ele>
        <time>2012-11-15T14:15:00Z</time>
      </trkpt>
      <trkpt lat="45.74317" lon="-1.14149">
        <ele>2.6</ele>
        <time>2012-11-15T14:15:12Z</time>
      </trkpt>
      <trkpt lat="45.74324" lon="-1.14167">
        <ele>2.5</ele>
        <time>2012-11-15T14:15:23Z</time>
      </trkpt>
      <trkpt lat="45.74333" lon="-1.14183">
        <ele>2.4</ele>
        <time>2012-11-15T14:15:36Z</time>
      </trkpt>
      <trkpt lat="45.74343" lon="-1.14198">
        <ele>2.3</ele>
        <time>2012-11-15T14:15:50Z</time>
      </trkpt>
      <trkpt lat="45.7435" lon="-1.14216">
        <ele>2.3</ele>
        <time>2012-11-15T14:16:02Z</time>
      </trkpt>
      <trkpt lat="45.74357" lon="-1.14236">
        <ele>2.2</ele>
        <time>2012-11-15T14:16:13Z</time>
      </trkpt>
      <trkpt lat="45.74364" lon="-1.14254">
        <ele>2.1</ele>
        <time>2012-11-15T14:16:25Z</time>
      </trkpt>
      <trkpt lat="45.74373" lon="-1.14268">
        <ele>2.1</ele>
        <time>2012-11-15T14:16:38Z</time>
      </trkpt>
      <trkpt lat="45.7438" lon="-1.14286">
        <ele>2</ele>
        <time>2012-11-15T14:16:49Z</time>
      </trkpt>
      <trkpt lat="45.74389" lon="-1.14301">
        <ele>1.9</ele>
        <time>2012-11-15T14:17:02Z</time>
      </trkpt>
      <trkpt lat="45.74396" lon="-1.1432">
        <ele>1.9</ele>
        <time>2012-11-15T14:17:12Z</time>
      </trkpt>
      <trkpt lat="45.74403" lon="-1.14336">
        <ele>1.8</ele>
        <time>2012-11-15T14:17:25Z</time>
      </trkpt>
      <trkpt lat="45.74411" lon="-1.14354">
        <ele>1.7</ele>
        <time>2012-11-15T14:17:36Z</time>
      </trkpt>
      <trkpt lat="45.74419" lon="-1.14371">
        <ele>1.7</ele>
        <time>2012-11-15T14:17:48Z</time>
      </trkpt>
      <trkpt lat="45.74426" lon="-1.14389">
        <ele>1.6</ele>
        <time>2012-11-15T14:18:01Z</time>
      </trkpt>
      <trkpt lat="45.74425" lon="-1.14408">
        <ele>1.5</ele>
        <time>2012-11-15T14:18:17Z</time>
      </trkpt>
      <trkpt lat="45.74415" lon="-1.14422">
        <ele>1.4</ele>
        <time>2012-11-15T14:18:28Z</time>
      </trkpt>
      <trkpt lat="45.74403" lon="-1.14434">
        <ele>1.4</ele>
        <time>2012-11-15T14:18:40Z</time>
      </trkpt>
      <trkpt lat="45.74393" lon="-1.14449">
        <ele>1.3</ele>
        <time>2012-11-15T14:18:54Z</time>
      </trkpt>
      <trkpt lat="45.74382" lon="-1.14463">
        <ele>1.2</ele>
        <time>2012-11-15T14:19:06Z</time>
      </trkpt>
      <trkpt lat="45.74373" lon="-1.14477">
        <ele>1.2</ele>
        <time>2012-11-15T14:19:18Z</time>
      </trkpt>
      <trkpt lat="45.74362" lon="-1.1449">
        <ele>1.1</ele>
        <time>2012-11-15T14:19:28Z</time>
      </trkpt>
      <trkpt lat="45.74352" lon="-1.14504">
        <ele>1</ele>
        <time>2012-11-15T14:19:40Z</time>
      </trkpt>
      <trkpt lat="45.74341" lon="-1.14518">
        <ele>1</ele>
        <time>2012-11-15T14:19:53Z</time>
      </trkpt>
      <trkpt lat="45.74329" lon="-1.14531">
        <ele>0.9</ele>
        <time>2012-11-15T14:20:04Z</time>
      </trkpt>
      <trkpt lat="45.7432" lon="-1.14545">
        <ele>0.8</ele>
        <time>2012-11-15T14:20:16Z</time>
      </trkpt>
      <trkpt lat="45.74308" lon="-1.14557">
        <ele>0.8</ele>
        <time>2012-11-15T14:20:27Z</time>
      </trkpt>
      <trkpt lat="45.74297" lon="-1.14568">
        <ele>0.7</ele>
        <time>2012-11-15T14:20:39Z</time>
      </trkpt>
      <trkpt lat="45.74291" lon="-1.14586">
        <ele>0.6</ele>
        <time>2012-11-15T14:20:51Z</time>
      </trkpt>
      <trkpt lat="45.74297" lon="-1.14605">
        <ele>0.6</ele>
        <time>2012-11-15T14:21:01Z</time>
      </trkpt>
      <trkpt lat="45.74303" lon="-1.14623">
        <ele>0.5</ele>
        <time>2012-11-15T14:21:12Z</time>
      </trkpt>
      <trkpt lat="45.74311" lon="-1.14639">
        <ele>0.4</ele>
        <time>2012-11-15T14:21:24Z</time>
      </trkpt>
      <trkpt lat="45.74319" lon="-1.14657">
        <ele>0.4</ele>
        <time>2012-11-15T14:21:35Z</time>
      </trkpt>
      <trkpt lat="45.74327" lon="-1.14674">
        <ele>0.4</ele>
        <time>2012-11-15T14:21:46Z</time>
      </trkpt>
      <trkpt lat="45.74335" lon="-1.14691">
        <ele>0.4</ele>
        <time>2012-11-15T14:21:58Z</time>
      </trkpt>
      <trkpt lat="45.74343" lon="-1.14706">
        <ele>0.5</ele>
        <time>2012-11-15T14:22:10Z</time>
      </trkpt>
      <trkpt lat="45.7435" lon="-1.14724">
        <ele>0.5</ele>
        <time>2012-11-15T14:22:22Z</time>
      </trkpt>
      <trkpt lat="45.7436" lon="-1.1474">
        <ele>0.5</ele>
        <time>2012-11-15T14:22:33Z</time>
      </trkpt>
      <trkpt lat="45.74368" lon="-1.14757">
        <ele>0.6</ele>
        <time>2012-11-15T14:22:44Z</time>
      </trkpt>
      <trkpt lat="45.74374" lon="-1.14776">
        <ele>0.6</ele>
        <time>2012-11-15T14:22:56Z</time>
      </trkpt>
      <trkpt lat="45.74382" lon="-1.14791">
        <ele>0.6</ele>
        <time>2012-11-15T14:23:06Z</time>
      </trkpt>
      <trkpt lat="45.7439" lon="-1.14807">
        <ele>0.6</ele>
        <time>2012-11-15T14:23:17Z</time>
      </trkpt>
      <trkpt lat="45.74399" lon="-1.14822">
        <ele>0.7</ele>
        <time>2012-11-15T14:23:30Z</time>
      </trkpt>
      <trkpt lat="45.74407" lon="-1.14838">
        <ele>0.7</ele>
        <time>2012-11-15T14:23:41Z</time>
      </trkpt>
      <trkpt lat="45.74415" lon="-1.14854">
        <ele>0.7</ele>
        <time>2012-11-15T14:23:52Z</time>
      </trkpt>
      <trkpt lat="45.74423" lon="-1.14871">
        <ele>0.8</ele>
        <time>2012-11-15T14:24:04Z</time>
      </trkpt>
      <trkpt lat="45.7443" lon="-1.14889">
        <ele>0.8</ele>
        <time>2012-11-15T14:24:15Z</time>
      </trkpt>
      <trkpt lat="45.74439" lon="-1.14906">
        <ele>0.8</ele>
        <time>2012-11-15T14:24:28Z</time>
      </trkpt>
      <trkpt lat="45.74448" lon="-1.14923">
        <ele>0.8</ele>
        <time>2012-11-15T14:24:39Z</time>
      </trkpt>
      <trkpt lat="45.74456" lon="-1.14939">
        <ele>0.9</ele>
        <time>2012-11-15T14:24:49Z</time>
      </trkpt>
      <trkpt lat="45.74464" lon="-1.14955">
        <ele>0.9</ele>
        <time>2012-11-15T14:25:01Z</time>
      </trkpt>
      <trkpt lat="45.74472" lon="-1.14972">
        <ele>0.9</ele>
        <time>2012-11-15T14:25:12Z</time>
      </trkpt>
      <trkpt lat="45.7448" lon="-1.14989">
        <ele>1</ele>
        <time>2012-11-15T14:25:25Z</time>
      </trkpt>
      <trkpt lat="45.74484" lon="-1.15008">
        <ele>1</ele>
        <time>2012-11-15T14:25:36Z</time>
      </trkpt>
      <trkpt lat="45.74497" lon="-1.1504">
        <ele>1</ele>
        <time>2012-11-15T14:25:49Z</time>
      </trkpt>
      <trkpt lat="45.74497" lon="-1.1504">
        <ele>1.1</ele>
        <time>2012-11-15T14:26:38Z</time>
      </trkpt>
      <trkpt lat="45.74507" lon="-1.15053">
        <ele>1.2</ele>
        <time>2012-11-15T14:26:46Z</time>
      </trkpt>
      <trkpt lat="45.74519" lon="-1.15061">
        <ele>1.2</ele>
        <time>2012-11-15T14:26:59Z</time>
      </trkpt>
      <trkpt lat="45.7453" lon="-1.15076">
        <ele>1.2</ele>
        <time>2012-11-15T14:27:11Z</time>
      </trkpt>
      <trkpt lat="45.74535" lon="-1.15095">
        <ele>1.3</ele>
        <time>2012-11-15T14:27:24Z</time>
      </trkpt>
      <trkpt lat="45.74546" lon="-1.15116">
        <ele>1.3</ele>
        <time>2012-11-15T14:27:35Z</time>
      </trkpt>
      <trkpt lat="45.74555" lon="-1.15131">
        <ele>1.3</ele>
        <time>2012-11-15T14:27:49Z</time>
      </trkpt>
      <trkpt lat="45.74563" lon="-1.15147">
        <ele>1.3</ele>
        <time>2012-11-15T14:28:01Z</time>
      </trkpt>
      <trkpt lat="45.7457" lon="-1.15164">
        <ele>1.4</ele>
        <time>2012-11-15T14:28:12Z</time>
      </trkpt>
      <trkpt lat="45.74577" lon="-1.15181">
        <ele>1.4</ele>
        <time>2012-11-15T14:28:23Z</time>
      </trkpt>
      <trkpt lat="45.74586" lon="-1.15197">
        <ele>1.4</ele>
        <time>2012-11-15T14:28:37Z</time>
      </trkpt>
      <trkpt lat="45.74595" lon="-1.15214">
        <ele>1.5</ele>
        <time>2012-11-15T14:28:49Z</time>
      </trkpt>
      <trkpt lat="45.74603" lon="-1.1523">
        <ele>1.5</ele>
        <time>2012-11-15T14:29:00Z</time>
      </trkpt>
      <trkpt lat="45.74612" lon="-1.15246">
        <ele>1.5</ele>
        <time>2012-11-15T14:29:12Z</time>
      </trkpt>
      <trkpt lat="45.74619" lon="-1.15264">
        <ele>1.5</ele>
        <time>2012-11-15T14:29:23Z</time>
      </trkpt>
      <trkpt lat="45.74625" lon="-1.15282">
        <ele>1.6</ele>
        <time>2012-11-15T14:29:34Z</time>
      </trkpt>
      <trkpt lat="45.74634" lon="-1.15299">
        <ele>1.6</ele>
        <time>2012-11-15T14:29:45Z</time>
      </trkpt>
      <trkpt lat="45.74642" lon="-1.15315">
        <ele>1.6</ele>
        <time>2012-11-15T14:29:58Z</time>
      </trkpt>
      <trkpt lat="45.74651" lon="-1.15332">
        <ele>1.7</ele>
        <time>2012-11-15T14:30:10Z</time>
      </trkpt>
      <trkpt lat="45.74662" lon="-1.15346">
        <ele>1.7</ele>
        <time>2012-11-15T14:30:22Z</time>
      </trkpt>
      <trkpt lat="45.74676" lon="-1.15343">
        <ele>1.7</ele>
        <time>2012-11-15T14:30:34Z</time>
      </trkpt>
      <trkpt lat="45.74687" lon="-1.15331">
        <ele>1.7</ele>
        <time>2012-11-15T14:30:44Z</time>
      </trkpt>
      <trkpt lat="45.747" lon="-1.15318">
        <ele>1.8</ele>
        <time>2012-11-15T14:30:55Z</time>
      </trkpt>
      <trkpt lat="45.74711" lon="-1.15306">
        <ele>1.8</ele>
        <time>2012-11-15T14:31:07Z</time>
      </trkpt>
      <trkpt lat="45.74724" lon="-1.15291">
        <ele>1.8</ele>
        <time>2012-11-15T14:31:19Z</time>
      </trkpt>
      <trkpt lat="45.74735" lon="-1.15272">
        <ele>1.9</ele>
        <time>2012-11-15T14:31:33Z</time>
      </trkpt>
      <trkpt lat="45.74746" lon="-1.15261">
        <ele>1.9</ele>
        <time>2012-11-15T14:31:48Z</time>
      </trkpt>
      <trkpt lat="45.74759" lon="-1.15252">
        <ele>1.9</ele>
        <time>2012-11-15T14:32:03Z</time>
      </trkpt>
      <trkpt lat="45.74771" lon="-1.15263">
        <ele>2</ele>
        <time>2012-11-15T14:32:14Z</time>
      </trkpt>
      <trkpt lat="45.74777" lon="-1.15282">
        <ele>2</ele>
        <time>2012-11-15T14:32:25Z</time>
      </trkpt>
      <trkpt lat="45.74783" lon="-1.153">
        <ele>2</ele>
        <time>2012-11-15T14:32:37Z</time>
      </trkpt>
      <trkpt lat="45.74788" lon="-1.15319">
        <ele>2.1</ele>
        <time>2012-11-15T14:32:47Z</time>
      </trkpt>
      <trkpt lat="45.74795" lon="-1.15337">
        <ele>2.1</ele>
        <time>2012-11-15T14:33:00Z</time>
      </trkpt>
      <trkpt lat="45.74801" lon="-1.15356">
        <ele>2.1</ele>
        <time>2012-11-15T14:33:13Z</time>
      </trkpt>
      <trkpt lat="45.74809" lon="-1.15373">
        <ele>2.1</ele>
        <time>2012-11-15T14:33:26Z</time>
      </trkpt>
      <trkpt lat="45.74816" lon="-1.1539">
        <ele>2.2</ele>
        <time>2012-11-15T14:33:37Z</time>
      </trkpt>
      <trkpt lat="45.74821" lon="-1.15413">
        <ele>2.2</ele>
        <time>2012-11-15T14:33:48Z</time>
      </trkpt>
      <trkpt lat="45.74827" lon="-1.15431">
        <ele>2.2</ele>
        <time>2012-11-15T14:34:00Z</time>
      </trkpt>
      <trkpt lat="45.74833" lon="-1.15449">
        <ele>2.3</ele>
        <time>2012-11-15T14:34:12Z</time>
      </trkpt>
      <trkpt lat="45.74839" lon="-1.15469">
        <ele>2.3</ele>
        <time>2012-11-15T14:34:23Z</time>
      </trkpt>
      <trkpt lat="45.74848" lon="-1.15485">
        <ele>2.3</ele>
        <time>2012-11-15T14:34:35Z</time>
      </trkpt>
      <trkpt lat="45.74857" lon="-1.15501">
        <ele>2.3</ele>
        <time>2012-11-15T14:34:47Z</time>
      </trkpt>
      <trkpt lat="45.74863" lon="-1.15519">
        <ele>2.4</ele>
        <time>2012-11-15T14:34:59Z</time>
      </trkpt>
      <trkpt lat="45.7487" lon="-1.15536">
        <ele>2.4</ele>
        <time>2012-11-15T14:35:09Z</time>
      </trkpt>
      <trkpt lat="45.74878" lon="-1.15552">
        <ele>2.4</ele>
        <time>2012-11-15T14:35:22Z</time>
      </trkpt>
      <trkpt lat="45.74884" lon="-1.15573">
        <ele>2.5</ele>
        <time>2012-11-15T14:35:34Z</time>
      </trkpt>
      <trkpt lat="45.74891" lon="-1.1559">
        <ele>2.5</ele>
        <time>2012-11-15T14:35:48Z</time>
      </trkpt>
      <trkpt lat="45.74899" lon="-1.15608">
        <ele>2.5</ele>
        <time>2012-11-15T14:35:59Z</time>
      </trkpt>
      <trkpt lat="45.74909" lon="-1.15629">
        <ele>2.6</ele>
        <time>2012-11-15T14:36:10Z</time>
      </trkpt>
      <trkpt lat="45.74917" lon="-1.1565">
        <ele>2.6</ele>
        <time>2012-11-15T14:36:24Z</time>
      </trkpt>
      <trkpt lat="45.74926" lon="-1.15666">
        <ele>2.6</ele>
        <time>2012-11-15T14:36:38Z</time>
      </trkpt>
      <trkpt lat="45.74939" lon="-1.15675">
        <ele>2.6</ele>
        <time>2012-11-15T14:36:49Z</time>
      </trkpt>
      <trkpt lat="45.7495" lon="-1.15688">
        <ele>2.7</ele>
        <time>2012-11-15T14:37:00Z</time>
      </trkpt>
      <trkpt lat="45.7497" lon="-1.15718">
        <ele>2.8</ele>
        <time>2012-11-15T14:37:38Z</time>
      </trkpt>
      <trkpt lat="45.7497" lon="-1.15718">
        <ele>3</ele>
        <time>2012-11-15T14:39:11Z</time>
      </trkpt>
      <trkpt lat="45.74979" lon="-1.15729">
        <ele>3</ele>
        <time>2012-11-15T14:39:11Z</time>
      </trkpt>
      <trkpt lat="45.74991" lon="-1.1574">
        <ele>3</ele>
        <time>2012-11-15T14:39:24Z</time>
      </trkpt>
      <trkpt lat="45.75006" lon="-1.15739">
        <ele>3.1</ele>
        <time>2012-11-15T14:39:38Z</time>
      </trkpt>
      <trkpt lat="45.75017" lon="-1.15731">
        <ele>3.1</ele>
        <time>2012-11-15T14:39:53Z</time>
      </trkpt>
      <trkpt lat="45.75029" lon="-1.15742">
        <ele>3.1</ele>
        <time>2012-11-15T14:40:08Z</time>
      </trkpt>
      <trkpt lat="45.75039" lon="-1.15756">
        <ele>3.2</ele>
        <time>2012-11-15T14:40:23Z</time>
      </trkpt>
      <trkpt lat="45.75053" lon="-1.1577">
        <ele>3.2</ele>
        <time>2012-11-15T14:40:36Z</time>
      </trkpt>
      <trkpt lat="45.75062" lon="-1.15785">
        <ele>3.3</ele>
        <time>2012-11-15T14:40:54Z</time>
      </trkpt>
      <trkpt lat="45.75075" lon="-1.15775">
        <ele>3.3</ele>
        <time>2012-11-15T14:41:15Z</time>
      </trkpt>
      <trkpt lat="45.75086" lon="-1.15765">
        <ele>3.3</ele>
        <time>2012-11-15T14:41:26Z</time>
      </trkpt>
      <trkpt lat="45.75096" lon="-1.15751">
        <ele>3.4</ele>
        <time>2012-11-15T14:41:39Z</time>
      </trkpt>
      <trkpt lat="45.75107" lon="-1.15738">
        <ele>3.4</ele>
        <time>2012-11-15T14:41:52Z</time>
      </trkpt>
      <trkpt lat="45.75119" lon="-1.15729">
        <ele>3.4</ele>
        <time>2012-11-15T14:42:06Z</time>
      </trkpt>
      <trkpt lat="45.75135" lon="-1.15722">
        <ele>3.5</ele>
        <time>2012-11-15T14:42:18Z</time>
      </trkpt>
      <trkpt lat="45.75148" lon="-1.15718">
        <ele>3.5</ele>
        <time>2012-11-15T14:42:30Z</time>
      </trkpt>
      <trkpt lat="45.75162" lon="-1.15715">
        <ele>3.5</ele>
        <time>2012-11-15T14:42:42Z</time>
      </trkpt>
      <trkpt lat="45.75175" lon="-1.15721">
        <ele>3.5</ele>
        <time>2012-11-15T14:42:53Z</time>
      </trkpt>
      <trkpt lat="45.75186" lon="-1.15737">
        <ele>3.6</ele>
        <time>2012-11-15T14:43:04Z</time>
      </trkpt>
      <trkpt lat="45.75193" lon="-1.15754">
        <ele>3.6</ele>
        <time>2012-11-15T14:43:16Z</time>
      </trkpt>
      <trkpt lat="45.75202" lon="-1.1577">
        <ele>3.6</ele>
        <time>2012-11-15T14:43:29Z</time>
      </trkpt>
      <trkpt lat="45.75212" lon="-1.15784">
        <ele>3.7</ele>
        <time>2012-11-15T14:43:41Z</time>
      </trkpt>
      <trkpt lat="45.75217" lon="-1.15803">
        <ele>3.7</ele>
        <time>2012-11-15T14:43:53Z</time>
      </trkpt>
      <trkpt lat="45.75224" lon="-1.15822">
        <ele>3.7</ele>
        <time>2012-11-15T14:44:07Z</time>
      </trkpt>
      <trkpt lat="45.7523" lon="-1.15841">
        <ele>3.8</ele>
        <time>2012-11-15T14:44:18Z</time>
      </trkpt>
      <trkpt lat="45.75232" lon="-1.1586">
        <ele>3.8</ele>
        <time>2012-11-15T14:44:34Z</time>
      </trkpt>
      <trkpt lat="45.75231" lon="-1.15881">
        <ele>3.8</ele>
        <time>2012-11-15T14:44:45Z</time>
      </trkpt>
      <trkpt lat="45.75235" lon="-1.15902">
        <ele>3.9</ele>
        <time>2012-11-15T14:44:57Z</time>
      </trkpt>
      <trkpt lat="45.75242" lon="-1.15919">
        <ele>3.9</ele>
        <time>2012-11-15T14:45:09Z</time>
      </trkpt>
      <trkpt lat="45.75252" lon="-1.1594">
        <ele>3.9</ele>
        <time>2012-11-15T14:45:21Z</time>
      </trkpt>
      <trkpt lat="45.75261" lon="-1.15954">
        <ele>4</ele>
        <time>2012-11-15T14:45:35Z</time>
      </trkpt>
      <trkpt lat="45.7527" lon="-1.1597">
        <ele>4</ele>
        <time>2012-11-15T14:45:46Z</time>
      </trkpt>
      <trkpt lat="45.75277" lon="-1.15988">
        <ele>4</ele>
        <time>2012-11-15T14:45:58Z</time>
      </trkpt>
      <trkpt lat="45.75287" lon="-1.16004">
        <ele>4</ele>
        <time>2012-11-15T14:46:09Z</time>
      </trkpt>
      <trkpt lat="45.75297" lon="-1.1602">
        <ele>4.1</ele>
        <time>2012-11-15T14:46:24Z</time>
      </trkpt>
      <trkpt lat="45.75307" lon="-1.16034">
        <ele>4.1</ele>
        <time>2012-11-15T14:46:39Z</time>
      </trkpt>
      <trkpt lat="45.75315" lon="-1.1605">
        <ele>4.1</ele>
        <time>2012-11-15T14:46:50Z</time>
      </trkpt>
      <trkpt lat="45.75327" lon="-1.1606">
        <ele>4.2</ele>
        <time>2012-11-15T14:47:02Z</time>
      </trkpt>
      <trkpt lat="45.75337" lon="-1.16075">
        <ele>4.2</ele>
        <time>2012-11-15T14:47:16Z</time>
      </trkpt>
      <trkpt lat="45.75342" lon="-1.16094">
        <ele>4.2</ele>
        <time>2012-11-15T14:47:28Z</time>
      </trkpt>
      <trkpt lat="45.75351" lon="-1.16109">
        <ele>4.3</ele>
        <time>2012-11-15T14:47:41Z</time>
      </trkpt>
      <trkpt lat="45.7536" lon="-1.1613">
        <ele>4.3</ele>
        <time>2012-11-15T14:47:52Z</time>
      </trkpt>
      <trkpt lat="45.75377" lon="-1.16137">
        <ele>4.3</ele>
        <time>2012-11-15T14:48:05Z</time>
      </trkpt>
      <trkpt lat="45.75387" lon="-1.16124">
        <ele>4.4</ele>
        <time>2012-11-15T14:48:17Z</time>
      </trkpt>
      <trkpt lat="45.75399" lon="-1.16112">
        <ele>4.4</ele>
        <time>2012-11-15T14:48:28Z</time>
      </trkpt>
      <trkpt lat="45.7541" lon="-1.16101">
        <ele>4.4</ele>
        <time>2012-11-15T14:48:39Z</time>
      </trkpt>
      <trkpt lat="45.75423" lon="-1.16091">
        <ele>4.4</ele>
        <time>2012-11-15T14:48:50Z</time>
      </trkpt>
      <trkpt lat="45.75434" lon="-1.16077">
        <ele>4.5</ele>
        <time>2012-11-15T14:49:02Z</time>
      </trkpt>
      <trkpt lat="45.75446" lon="-1.16066">
        <ele>4.5</ele>
        <time>2012-11-15T14:49:14Z</time>
      </trkpt>
      <trkpt lat="45.75459" lon="-1.16055">
        <ele>4.5</ele>
        <time>2012-11-15T14:49:26Z</time>
      </trkpt>
      <trkpt lat="45.7547" lon="-1.16043">
        <ele>4.6</ele>
        <time>2012-11-15T14:49:40Z</time>
      </trkpt>
      <trkpt lat="45.75482" lon="-1.1603">
        <ele>4.6</ele>
        <time>2012-11-15T14:49:51Z</time>
      </trkpt>
      <trkpt lat="45.75492" lon="-1.16015">
        <ele>4.6</ele>
        <time>2012-11-15T14:50:06Z</time>
      </trkpt>
      <trkpt lat="45.75504" lon="-1.16005">
        <ele>4.6</ele>
        <time>2012-11-15T14:50:17Z</time>
      </trkpt>
      <trkpt lat="45.75514" lon="-1.15992">
        <ele>4.7</ele>
        <time>2012-11-15T14:50:31Z</time>
      </trkpt>
      <trkpt lat="45.75521" lon="-1.15976">
        <ele>4.7</ele>
        <time>2012-11-15T14:50:46Z</time>
      </trkpt>
      <trkpt lat="45.75542" lon="-1.15922">
        <ele>4.8</ele>
        <time>2012-11-15T14:51:21Z</time>
      </trkpt>
      <trkpt lat="45.75542" lon="-1.15922">
        <ele>6.1</ele>
        <time>2012-11-15T15:00:12Z</time>
      </trkpt>
      <trkpt lat="45.7555" lon="-1.15885">
        <ele>6.2</ele>
        <time>2012-11-15T15:00:25Z</time>
      </trkpt>
      <trkpt lat="45.75557" lon="-1.15861">
        <ele>6.2</ele>
        <time>2012-11-15T15:00:45Z</time>
      </trkpt>
      <trkpt lat="45.75556" lon="-1.15841">
        <ele>6.3</ele>
        <time>2012-11-15T15:01:10Z</time>
      </trkpt>
      <trkpt lat="45.75561" lon="-1.15821">
        <ele>6.3</ele>
        <time>2012-11-15T15:01:29Z</time>
      </trkpt>
      <trkpt lat="45.75554" lon="-1.15804">
        <ele>6.3</ele>
        <time>2012-11-15T15:01:42Z</time>
      </trkpt>
      <trkpt lat="45.75552" lon="-1.15784">
        <ele>6.4</ele>
        <time>2012-11-15T15:02:06Z</time>
      </trkpt>
      <trkpt lat="45.75552" lon="-1.15763">
        <ele>6.4</ele>
        <time>2012-11-15T15:02:25Z</time>
      </trkpt>
      <trkpt lat="45.75559" lon="-1.15745">
        <ele>6.5</ele>
        <time>2012-11-15T15:02:47Z</time>
      </trkpt>
      <trkpt lat="45.7556" lon="-1.15725">
        <ele>6.5</ele>
        <time>2012-11-15T15:03:03Z</time>
      </trkpt>
      <trkpt lat="45.75558" lon="-1.15706">
        <ele>6.6</ele>
        <time>2012-11-15T15:03:14Z</time>
      </trkpt>
      <trkpt lat="45.75555" lon="-1.15686">
        <ele>6.6</ele>
        <time>2012-11-15T15:03:27Z</time>
      </trkpt>
      <trkpt lat="45.75561" lon="-1.15667">
        <ele>6.6</ele>
        <time>2012-11-15T15:03:40Z</time>
      </trkpt>
      <trkpt lat="45.75558" lon="-1.15646">
        <ele>6.7</ele>
        <time>2012-11-15T15:03:55Z</time>
      </trkpt>
      <trkpt lat="45.75554" lon="-1.15627">
        <ele>6.7</ele>
        <time>2012-11-15T15:04:03Z</time>
      </trkpt>
      <trkpt lat="45.75547" lon="-1.15609">
        <ele>6.7</ele>
        <time>2012-11-15T15:04:11Z</time>
      </trkpt>
      <trkpt lat="45.7554" lon="-1.15589">
        <ele>6.7</ele>
        <time>2012-11-15T15:04:20Z</time>
      </trkpt>
      <trkpt lat="45.75535" lon="-1.15571">
        <ele>6.8</ele>
        <time>2012-11-15T15:04:35Z</time>
      </trkpt>
      <trkpt lat="45.75529" lon="-1.15553">
        <ele>6.8</ele>
        <time>2012-11-15T15:04:49Z</time>
      </trkpt>
      <trkpt lat="45.7552" lon="-1.1553">
        <ele>6.9</ele>
        <time>2012-11-15T15:05:08Z</time>
      </trkpt>
      <trkpt lat="45.75514" lon="-1.15507">
        <ele>6.9</ele>
        <time>2012-11-15T15:05:24Z</time>
      </trkpt>
      <trkpt lat="45.75508" lon="-1.15488">
        <ele>6.9</ele>
        <time>2012-11-15T15:05:36Z</time>
      </trkpt>
      <trkpt lat="45.755" lon="-1.15472">
        <ele>7</ele>
        <time>2012-11-15T15:05:52Z</time>
      </trkpt>
      <trkpt lat="45.75493" lon="-1.15454">
        <ele>7</ele>
        <time>2012-11-15T15:06:04Z</time>
      </trkpt>
      <trkpt lat="45.75484" lon="-1.15427">
        <ele>7</ele>
        <time>2012-11-15T15:06:14Z</time>
      </trkpt>
      <trkpt lat="45.75475" lon="-1.15421">
        <ele>7.1</ele>
        <time>2012-11-15T15:06:29Z</time>
      </trkpt>
      <trkpt lat="45.75466" lon="-1.15403">
        <ele>7.1</ele>
        <time>2012-11-15T15:06:45Z</time>
      </trkpt>
      <trkpt lat="45.75455" lon="-1.15385">
        <ele>7.1</ele>
        <time>2012-11-15T15:06:52Z</time>
      </trkpt>
      <trkpt lat="45.75445" lon="-1.15367">
        <ele>7.1</ele>
        <time>2012-11-15T15:06:58Z</time>
      </trkpt>
      <trkpt lat="45.75434" lon="-1.15355">
        <ele>7.2</ele>
        <time>2012-11-15T15:07:09Z</time>
      </trkpt>
      <trkpt lat="45.75417" lon="-1.15351">
        <ele>7.2</ele>
        <time>2012-11-15T15:07:32Z</time>
      </trkpt>
      <trkpt lat="45.75404" lon="-1.15344">
        <ele>7.2</ele>
        <time>2012-11-15T15:07:42Z</time>
      </trkpt>
      <trkpt lat="45.75391" lon="-1.15332">
        <ele>7.3</ele>
        <time>2012-11-15T15:07:53Z</time>
      </trkpt>
      <trkpt lat="45.75376" lon="-1.15332">
        <ele>7.3</ele>
        <time>2012-11-15T15:08:08Z</time>
      </trkpt>
      <trkpt lat="45.75362" lon="-1.15338">
        <ele>7.3</ele>
        <time>2012-11-15T15:08:19Z</time>
      </trkpt>
      <trkpt lat="45.7535" lon="-1.15348">
        <ele>7.4</ele>
        <time>2012-11-15T15:08:34Z</time>
      </trkpt>
      <trkpt lat="45.75338" lon="-1.15358">
        <ele>7.4</ele>
        <time>2012-11-15T15:08:47Z</time>
      </trkpt>
      <trkpt lat="45.75325" lon="-1.15367">
        <ele>7.4</ele>
        <time>2012-11-15T15:09:01Z</time>
      </trkpt>
      <trkpt lat="45.75312" lon="-1.15375">
        <ele>7.5</ele>
        <time>2012-11-15T15:09:16Z</time>
      </trkpt>
      <trkpt lat="45.75299" lon="-1.15382">
        <ele>7.5</ele>
        <time>2012-11-15T15:09:27Z</time>
      </trkpt>
      <trkpt lat="45.75287" lon="-1.15391">
        <ele>7.5</ele>
        <time>2012-11-15T15:09:40Z</time>
      </trkpt>
      <trkpt lat="45.75275" lon="-1.15402">
        <ele>7.6</ele>
        <time>2012-11-15T15:09:53Z</time>
      </trkpt>
      <trkpt lat="45.75262" lon="-1.1541">
        <ele>7.6</ele>
        <time>2012-11-15T15:10:06Z</time>
      </trkpt>
      <trkpt lat="45.75248" lon="-1.15404">
        <ele>7.6</ele>
        <time>2012-11-15T15:10:16Z</time>
      </trkpt>
      <trkpt lat="45.75241" lon="-1.15387">
        <ele>7.6</ele>
        <time>2012-11-15T15:10:28Z</time>
      </trkpt>
      <trkpt lat="45.75244" lon="-1.15367">
        <ele>7.7</ele>
        <time>2012-11-15T15:10:40Z</time>
      </trkpt>
      <trkpt lat="45.75246" lon="-1.15347">
        <ele>7.7</ele>
        <time>2012-11-15T15:10:55Z</time>
      </trkpt>
      <trkpt lat="45.75243" lon="-1.15328">
        <ele>7.7</ele>
        <time>2012-11-15T15:11:07Z</time>
      </trkpt>
      <trkpt lat="45.7524" lon="-1.15307">
        <ele>7.8</ele>
        <time>2012-11-15T15:11:20Z</time>
      </trkpt>
      <trkpt lat="45.75235" lon="-1.15289">
        <ele>7.8</ele>
        <time>2012-11-15T15:11:33Z</time>
      </trkpt>
      <trkpt lat="45.75231" lon="-1.1527">
        <ele>7.8</ele>
        <time>2012-11-15T15:11:47Z</time>
      </trkpt>
      <trkpt lat="45.75222" lon="-1.15254">
        <ele>7.9</ele>
        <time>2012-11-15T15:12:00Z</time>
      </trkpt>
      <trkpt lat="45.75215" lon="-1.1523">
        <ele>7.9</ele>
        <time>2012-11-15T15:12:26Z</time>
      </trkpt>
      <trkpt lat="45.75213" lon="-1.15211">
        <ele>8</ele>
        <time>2012-11-15T15:12:39Z</time>
      </trkpt>
      <trkpt lat="45.75212" lon="-1.15191">
        <ele>8</ele>
        <time>2012-11-15T15:12:51Z</time>
      </trkpt>
      <trkpt lat="45.75212" lon="-1.15171">
        <ele>8</ele>
        <time>2012-11-15T15:13:01Z</time>
      </trkpt>
      <trkpt lat="45.75216" lon="-1.1515">
        <ele>8.1</ele>
        <time>2012-11-15T15:13:14Z</time>
      </trkpt>
      <trkpt lat="45.75219" lon="-1.15131">
        <ele>8.1</ele>
        <time>2012-11-15T15:13:27Z</time>
      </trkpt>
      <trkpt lat="45.7522" lon="-1.1511">
        <ele>8.1</ele>
        <time>2012-11-15T15:13:40Z</time>
      </trkpt>
      <trkpt lat="45.75225" lon="-1.15091">
        <ele>8.2</ele>
        <time>2012-11-15T15:13:53Z</time>
      </trkpt>
      <trkpt lat="45.75232" lon="-1.15073">
        <ele>8.2</ele>
        <time>2012-11-15T15:14:05Z</time>
      </trkpt>
      <trkpt lat="45.7524" lon="-1.15055">
        <ele>8.2</ele>
        <time>2012-11-15T15:14:17Z</time>
      </trkpt>
      <trkpt lat="45.75252" lon="-1.15036">
        <ele>8.2</ele>
        <time>2012-11-15T15:14:30Z</time>
      </trkpt>
      <trkpt lat="45.75264" lon="-1.1502">
        <ele>8.3</ele>
        <time>2012-11-15T15:14:45Z</time>
      </trkpt>
      <trkpt lat="45.75274" lon="-1.15005">
        <ele>8.3</ele>
        <time>2012-11-15T15:14:59Z</time>
      </trkpt>
      <trkpt lat="45.75286" lon="-1.14988">
        <ele>8.3</ele>
        <time>2012-11-15T15:15:13Z</time>
      </trkpt>
      <trkpt lat="45.753" lon="-1.14975">
        <ele>8.4</ele>
        <time>2012-11-15T15:15:28Z</time>
      </trkpt>
      <trkpt lat="45.75312" lon="-1.14964">
        <ele>8.4</ele>
        <time>2012-11-15T15:15:43Z</time>
      </trkpt>
      <trkpt lat="45.75327" lon="-1.14951">
        <ele>8.5</ele>
        <time>2012-11-15T15:15:56Z</time>
      </trkpt>
      <trkpt lat="45.75341" lon="-1.14939">
        <ele>8.5</ele>
        <time>2012-11-15T15:16:09Z</time>
      </trkpt>
      <trkpt lat="45.75353" lon="-1.14929">
        <ele>8.5</ele>
        <time>2012-11-15T15:16:23Z</time>
      </trkpt>
      <trkpt lat="45.75361" lon="-1.14918">
        <ele>8.6</ele>
        <time>2012-11-15T15:16:35Z</time>
      </trkpt>
      <trkpt lat="45.7535" lon="-1.14906">
        <ele>8.6</ele>
        <time>2012-11-15T15:16:45Z</time>
      </trkpt>
      <trkpt lat="45.75339" lon="-1.14893">
        <ele>8.6</ele>
        <time>2012-11-15T15:16:57Z</time>
      </trkpt>
      <trkpt lat="45.75327" lon="-1.14882">
        <ele>8.6</ele>
        <time>2012-11-15T15:17:08Z</time>
      </trkpt>
      <trkpt lat="45.75317" lon="-1.14869">
        <ele>8.7</ele>
        <time>2012-11-15T15:17:20Z</time>
      </trkpt>
      <trkpt lat="45.75306" lon="-1.14857">
        <ele>8.7</ele>
        <time>2012-11-15T15:17:32Z</time>
      </trkpt>
      <trkpt lat="45.75297" lon="-1.14843">
        <ele>8.7</ele>
        <time>2012-11-15T15:17:45Z</time>
      </trkpt>
      <trkpt lat="45.75299" lon="-1.14819">
        <ele>8.8</ele>
        <time>2012-11-15T15:17:58Z</time>
      </trkpt>
      <trkpt lat="45.75298" lon="-1.14799">
        <ele>8.8</ele>
        <time>2012-11-15T15:18:14Z</time>
      </trkpt>
      <trkpt lat="45.75296" lon="-1.14779">
        <ele>8.8</ele>
        <time>2012-11-15T15:18:27Z</time>
      </trkpt>
      <trkpt lat="45.75294" lon="-1.14758">
        <ele>8.9</ele>
        <time>2012-11-15T15:18:41Z</time>
      </trkpt>
      <trkpt lat="45.75294" lon="-1.14738">
        <ele>8.9</ele>
        <time>2012-11-15T15:18:55Z</time>
      </trkpt>
      <trkpt lat="45.75293" lon="-1.14715">
        <ele>8.9</ele>
        <time>2012-11-15T15:19:09Z</time>
      </trkpt>
      <trkpt lat="45.75291" lon="-1.14694">
        <ele>9</ele>
        <time>2012-11-15T15:19:28Z</time>
      </trkpt>
      <trkpt lat="45.75287" lon="-1.14671">
        <ele>9</ele>
        <time>2012-11-15T15:19:47Z</time>
      </trkpt>
      <trkpt lat="45.75282" lon="-1.14652">
        <ele>9.1</ele>
        <time>2012-11-15T15:20:01Z</time>
      </trkpt>
      <trkpt lat="45.75276" lon="-1.14634">
        <ele>9.1</ele>
        <time>2012-11-15T15:20:13Z</time>
      </trkpt>
      <trkpt lat="45.75272" lon="-1.14616">
        <ele>9.1</ele>
        <time>2012-11-15T15:20:25Z</time>
      </trkpt>
      <trkpt lat="45.75279" lon="-1.14598">
        <ele>9.1</ele>
        <time>2012-11-15T15:20:36Z</time>
      </trkpt>
      <trkpt lat="45.75293" lon="-1.14585">
        <ele>9.2</ele>
        <time>2012-11-15T15:20:51Z</time>
      </trkpt>
      <trkpt lat="45.75307" lon="-1.14581">
        <ele>9.2</ele>
        <time>2012-11-15T15:21:08Z</time>
      </trkpt>
      <trkpt lat="45.7532" lon="-1.14577">
        <ele>9.3</ele>
        <time>2012-11-15T15:21:20Z</time>
      </trkpt>
      <trkpt lat="45.75334" lon="-1.14575">
        <ele>9.3</ele>
        <time>2012-11-15T15:21:33Z</time>
      </trkpt>
      <trkpt lat="45.75349" lon="-1.1457">
        <ele>9.3</ele>
        <time>2012-11-15T15:21:47Z</time>
      </trkpt>
      <trkpt lat="45.75363" lon="-1.14564">
        <ele>9.4</ele>
        <time>2012-11-15T15:22:03Z</time>
      </trkpt>
      <trkpt lat="45.75374" lon="-1.14552">
        <ele>9.4</ele>
        <time>2012-11-15T15:22:16Z</time>
      </trkpt>
      <trkpt lat="45.75384" lon="-1.14539">
        <ele>9.4</ele>
        <time>2012-11-15T15:22:31Z</time>
      </trkpt>
      <trkpt lat="45.75394" lon="-1.14524">
        <ele>9.5</ele>
        <time>2012-11-15T15:22:43Z</time>
      </trkpt>
      <trkpt lat="45.75405" lon="-1.14511">
        <ele>9.5</ele>
        <time>2012-11-15T15:22:56Z</time>
      </trkpt>
      <trkpt lat="45.75417" lon="-1.14498">
        <ele>9.5</ele>
        <time>2012-11-15T15:23:11Z</time>
      </trkpt>
      <trkpt lat="45.75428" lon="-1.14483">
        <ele>9.6</ele>
        <time>2012-11-15T15:23:26Z</time>
      </trkpt>
      <trkpt lat="45.75438" lon="-1.1447">
        <ele>9.6</ele>
        <time>2012-11-15T15:23:40Z</time>
      </trkpt>
      <trkpt lat="45.7545" lon="-1.14461">
        <ele>9.6</ele>
        <time>2012-11-15T15:23:51Z</time>
      </trkpt>
      <trkpt lat="45.75461" lon="-1.14448">
        <ele>9.7</ele>
        <time>2012-11-15T15:24:04Z</time>
      </trkpt>
      <trkpt lat="45.75472" lon="-1.14435">
        <ele>9.7</ele>
        <time>2012-11-15T15:24:18Z</time>
      </trkpt>
      <trkpt lat="45.75481" lon="-1.1442">
        <ele>9.7</ele>
        <time>2012-11-15T15:24:32Z</time>
      </trkpt>
      <trkpt lat="45.75491" lon="-1.14405">
        <ele>9.8</ele>
        <time>2012-11-15T15:24:46Z</time>
      </trkpt>
      <trkpt lat="45.75502" lon="-1.14394">
        <ele>9.8</ele>
        <time>2012-11-15T15:24:59Z</time>
      </trkpt>
      <trkpt lat="45.75514" lon="-1.14383">
        <ele>9.8</ele>
        <time>2012-11-15T15:25:11Z</time>
      </trkpt>
      <trkpt lat="45.75526" lon="-1.14374">
        <ele>9.9</ele>
        <time>2012-11-15T15:25:22Z</time>
      </trkpt>
      <trkpt lat="45.75524" lon="-1.14353">
        <ele>9.9</ele>
        <time>2012-11-15T15:25:41Z</time>
      </trkpt>
      <trkpt lat="45.75517" lon="-1.14337">
        <ele>9.9</ele>
        <time>2012-11-15T15:25:51Z</time>
      </trkpt>
      <trkpt lat="45.7551" lon="-1.14316">
        <ele>10</ele>
        <time>2012-11-15T15:26:06Z</time>
      </trkpt>
      <trkpt lat="45.75503" lon="-1.14296">
        <ele>10</ele>
        <time>2012-11-15T15:26:21Z</time>
      </trkpt>
      <trkpt lat="45.75496" lon="-1.14277">
        <ele>10</ele>
        <time>2012-11-15T15:26:38Z</time>
      </trkpt>
      <trkpt lat="45.75489" lon="-1.1426">
        <ele>10.1</ele>
        <time>2012-11-15T15:26:48Z</time>
      </trkpt>
      <trkpt lat="45.75482" lon="-1.14241">
        <ele>10.1</ele>
        <time>2012-11-15T15:27:03Z</time>
      </trkpt>
      <trkpt lat="45.75476" lon="-1.14223">
        <ele>10.1</ele>
        <time>2012-11-15T15:27:19Z</time>
      </trkpt>
      <trkpt lat="45.75468" lon="-1.14205">
        <ele>10.2</ele>
        <time>2012-11-15T15:27:30Z</time>
      </trkpt>
      <trkpt lat="45.75461" lon="-1.14185">
        <ele>10.2</ele>
        <time>2012-11-15T15:27:46Z</time>
      </trkpt>
      <trkpt lat="45.75454" lon="-1.14168">
        <ele>10.2</ele>
        <time>2012-11-15T15:28:00Z</time>
      </trkpt>
      <trkpt lat="45.75448" lon="-1.14149">
        <ele>10.3</ele>
        <time>2012-11-15T15:28:15Z</time>
      </trkpt>
      <trkpt lat="45.75442" lon="-1.14129">
        <ele>10.3</ele>
        <time>2012-11-15T15:28:31Z</time>
      </trkpt>
      <trkpt lat="45.75436" lon="-1.14108">
        <ele>10.4</ele>
        <time>2012-11-15T15:28:45Z</time>
      </trkpt>
      <trkpt lat="45.75431" lon="-1.14087">
        <ele>10.4</ele>
        <time>2012-11-15T15:29:01Z</time>
      </trkpt>
      <trkpt lat="45.75427" lon="-1.14068">
        <ele>10.4</ele>
        <time>2012-11-15T15:29:14Z</time>
      </trkpt>
      <trkpt lat="45.75424" lon="-1.14048">
        <ele>10.4</ele>
        <time>2012-11-15T15:29:28Z</time>
      </trkpt>
      <trkpt lat="45.7542" lon="-1.1403">
        <ele>10.4</ele>
        <time>2012-11-15T15:29:37Z</time>
      </trkpt>
      <trkpt lat="45.75413" lon="-1.14013">
        <ele>10.4</ele>
        <time>2012-11-15T15:29:47Z</time>
      </trkpt>
      <trkpt lat="45.75402" lon="-1.13998">
        <ele>10.4</ele>
        <time>2012-11-15T15:30:01Z</time>
      </trkpt>
      <trkpt lat="45.75396" lon="-1.13981">
        <ele>10.5</ele>
        <time>2012-11-15T15:30:11Z</time>
      </trkpt>
      <trkpt lat="45.75385" lon="-1.13966">
        <ele>10.5</ele>
        <time>2012-11-15T15:30:22Z</time>
      </trkpt>
      <trkpt lat="45.75376" lon="-1.13951">
        <ele>10.5</ele>
        <time>2012-11-15T15:30:34Z</time>
      </trkpt>
      <trkpt lat="45.75367" lon="-1.13936">
        <ele>10.5</ele>
        <time>2012-11-15T15:30:45Z</time>
      </trkpt>
      <trkpt lat="45.75357" lon="-1.13919">
        <ele>10.5</ele>
        <time>2012-11-15T15:31:00Z</time>
      </trkpt>
      <trkpt lat="45.75348" lon="-1.13904">
        <ele>10.5</ele>
        <time>2012-11-15T15:31:15Z</time>
      </trkpt>
      <trkpt lat="45.75339" lon="-1.13888">
        <ele>10.5</ele>
        <time>2012-11-15T15:31:27Z</time>
      </trkpt>
      <trkpt lat="45.75331" lon="-1.13872">
        <ele>10.5</ele>
        <time>2012-11-15T15:31:38Z</time>
      </trkpt>
      <trkpt lat="45.75325" lon="-1.13854">
        <ele>10.5</ele>
        <time>2012-11-15T15:31:52Z</time>
      </trkpt>
      <trkpt lat="45.75314" lon="-1.13844">
        <ele>10.6</ele>
        <time>2012-11-15T15:32:04Z</time>
      </trkpt>
      <trkpt lat="45.75307" lon="-1.13824">
        <ele>10.6</ele>
        <time>2012-11-15T15:32:14Z</time>
      </trkpt>
      <trkpt lat="45.75301" lon="-1.13805">
        <ele>10.6</ele>
        <time>2012-11-15T15:32:26Z</time>
      </trkpt>
      <trkpt lat="45.75294" lon="-1.13788">
        <ele>10.6</ele>
        <time>2012-11-15T15:32:38Z</time>
      </trkpt>
      <trkpt lat="45.75285" lon="-1.13772">
        <ele>10.6</ele>
        <time>2012-11-15T15:32:51Z</time>
      </trkpt>
      <trkpt lat="45.75275" lon="-1.13759">
        <ele>10.6</ele>
        <time>2012-11-15T15:33:05Z</time>
      </trkpt>
      <trkpt lat="45.75265" lon="-1.13745">
        <ele>10.6</ele>
        <time>2012-11-15T15:33:16Z</time>
      </trkpt>
      <trkpt lat="45.75255" lon="-1.13727">
        <ele>10.6</ele>
        <time>2012-11-15T15:33:27Z</time>
      </trkpt>
      <trkpt lat="45.75246" lon="-1.13713">
        <ele>10.6</ele>
        <time>2012-11-15T15:33:42Z</time>
      </trkpt>
      <trkpt lat="45.75235" lon="-1.13696">
        <ele>10.6</ele>
        <time>2012-11-15T15:33:54Z</time>
      </trkpt>
      <trkpt lat="45.7524" lon="-1.13677">
        <ele>10.7</ele>
        <time>2012-11-15T15:34:09Z</time>
      </trkpt>
      <trkpt lat="45.75248" lon="-1.1366">
        <ele>10.7</ele>
        <time>2012-11-15T15:34:21Z</time>
      </trkpt>
      <trkpt lat="45.75257" lon="-1.13639">
        <ele>10.7</ele>
        <time>2012-11-15T15:34:34Z</time>
      </trkpt>
      <trkpt lat="45.75268" lon="-1.13626">
        <ele>10.7</ele>
        <time>2012-11-15T15:34:49Z</time>
      </trkpt>
      <trkpt lat="45.75278" lon="-1.13613">
        <ele>10.7</ele>
        <time>2012-11-15T15:35:03Z</time>
      </trkpt>
      <trkpt lat="45.75288" lon="-1.13599">
        <ele>10.7</ele>
        <time>2012-11-15T15:35:17Z</time>
      </trkpt>
      <trkpt lat="45.75299" lon="-1.13587">
        <ele>10.7</ele>
        <time>2012-11-15T15:35:28Z</time>
      </trkpt>
      <trkpt lat="45.75307" lon="-1.1357">
        <ele>10.7</ele>
        <time>2012-11-15T15:35:41Z</time>
      </trkpt>
      <trkpt lat="45.75312" lon="-1.13549">
        <ele>10.8</ele>
        <time>2012-11-15T15:35:57Z</time>
      </trkpt>
      <trkpt lat="45.75318" lon="-1.13528">
        <ele>10.8</ele>
        <time>2012-11-15T15:36:10Z</time>
      </trkpt>
      <trkpt lat="45.75324" lon="-1.13506">
        <ele>10.8</ele>
        <time>2012-11-15T15:36:25Z</time>
      </trkpt>
      <trkpt lat="45.75327" lon="-1.13484">
        <ele>10.8</ele>
        <time>2012-11-15T15:36:39Z</time>
      </trkpt>
      <trkpt lat="45.75327" lon="-1.13464">
        <ele>10.8</ele>
        <time>2012-11-15T15:36:51Z</time>
      </trkpt>
      <trkpt lat="45.75329" lon="-1.13445">
        <ele>10.8</ele>
        <time>2012-11-15T15:37:04Z</time>
      </trkpt>
      <trkpt lat="45.75334" lon="-1.13421">
        <ele>10.8</ele>
        <time>2012-11-15T15:37:19Z</time>
      </trkpt>
      <trkpt lat="45.75339" lon="-1.13395">
        <ele>10.8</ele>
        <time>2012-11-15T15:37:34Z</time>
      </trkpt>
      <trkpt lat="45.75343" lon="-1.13376">
        <ele>10.9</ele>
        <time>2012-11-15T15:37:52Z</time>
      </trkpt>
      <trkpt lat="45.75345" lon="-1.13355">
        <ele>10.9</ele>
        <time>2012-11-15T15:38:05Z</time>
      </trkpt>
      <trkpt lat="45.75345" lon="-1.13335">
        <ele>10.9</ele>
        <time>2012-11-15T15:38:18Z</time>
      </trkpt>
      <trkpt lat="45.75348" lon="-1.13311">
        <ele>10.9</ele>
        <time>2012-11-15T15:38:30Z</time>
      </trkpt>
      <trkpt lat="45.7535" lon="-1.13291">
        <ele>10.9</ele>
        <time>2012-11-15T15:38:43Z</time>
      </trkpt>
      <trkpt lat="45.75357" lon="-1.13273">
        <ele>10.9</ele>
        <time>2012-11-15T15:39:10Z</time>
      </trkpt>
      <trkpt lat="45.75364" lon="-1.13256">
        <ele>10.9</ele>
        <time>2012-11-15T15:39:28Z</time>
      </trkpt>
      <trkpt lat="45.75372" lon="-1.13239">
        <ele>10.9</ele>
        <time>2012-11-15T15:39:40Z</time>
      </trkpt>
      <trkpt lat="45.75382" lon="-1.13223">
        <ele>11</ele>
        <time>2012-11-15T15:39:53Z</time>
      </trkpt>
      <trkpt lat="45.75392" lon="-1.1321">
        <ele>11</ele>
        <time>2012-11-15T15:40:05Z</time>
      </trkpt>
      <trkpt lat="45.75397" lon="-1.13191">
        <ele>11</ele>
        <time>2012-11-15T15:40:19Z</time>
      </trkpt>
      <trkpt lat="45.754" lon="-1.13172">
        <ele>11</ele>
        <time>2012-11-15T15:40:30Z</time>
      </trkpt>
      <trkpt lat="45.75403" lon="-1.13148">
        <ele>11</ele>
        <time>2012-11-15T15:40:42Z</time>
      </trkpt>
      <trkpt lat="45.75406" lon="-1.13128">
        <ele>11</ele>
        <time>2012-11-15T15:40:56Z</time>
      </trkpt>
      <trkpt lat="45.7541" lon="-1.13109">
        <ele>11</ele>
        <time>2012-11-15T15:41:06Z</time>
      </trkpt>
      <trkpt lat="45.75414" lon="-1.1309">
        <ele>11</ele>
        <time>2012-11-15T15:41:19Z</time>
      </trkpt>
      <trkpt lat="45.75416" lon="-1.1307">
        <ele>11</ele>
        <time>2012-11-15T15:41:31Z</time>
      </trkpt>
      <trkpt lat="45.75408" lon="-1.13027">
        <ele>11.1</ele>
        <time>2012-11-15T15:41:58Z</time>
      </trkpt>
      <trkpt lat="45.75408" lon="-1.13027">
        <ele>11.1</ele>
        <time>2012-11-15T15:42:38Z</time>
      </trkpt>
      <trkpt lat="45.75399" lon="-1.13004">
        <ele>11.1</ele>
        <time>2012-11-15T15:42:45Z</time>
      </trkpt>
      <trkpt lat="45.75386" lon="-1.12994">
        <ele>11.1</ele>
        <time>2012-11-15T15:42:55Z</time>
      </trkpt>
      <trkpt lat="45.75373" lon="-1.12988">
        <ele>11.1</ele>
        <time>2012-11-15T15:43:08Z</time>
      </trkpt>
      <trkpt lat="45.75356" lon="-1.12983">
        <ele>11.1</ele>
        <time>2012-11-15T15:43:23Z</time>
      </trkpt>
      <trkpt lat="45.75342" lon="-1.12977">
        <ele>11.2</ele>
        <time>2012-11-15T15:43:38Z</time>
      </trkpt>
      <trkpt lat="45.75335" lon="-1.12962">
        <ele>11.2</ele>
        <time>2012-11-15T15:43:56Z</time>
      </trkpt>
      <trkpt lat="45.75341" lon="-1.12938">
        <ele>11.2</ele>
        <time>2012-11-15T15:44:07Z</time>
      </trkpt>
      <trkpt lat="45.75349" lon="-1.12922">
        <ele>11.2</ele>
        <time>2012-11-15T15:44:21Z</time>
      </trkpt>
      <trkpt lat="45.75345" lon="-1.129">
        <ele>11.2</ele>
        <time>2012-11-15T15:44:45Z</time>
      </trkpt>
      <trkpt lat="45.75337" lon="-1.12885">
        <ele>11.2</ele>
        <time>2012-11-15T15:44:59Z</time>
      </trkpt>
      <trkpt lat="45.75328" lon="-1.12867">
        <ele>11.2</ele>
        <time>2012-11-15T15:45:09Z</time>
      </trkpt>
      <trkpt lat="45.75322" lon="-1.1285">
        <ele>11.2</ele>
        <time>2012-11-15T15:45:22Z</time>
      </trkpt>
      <trkpt lat="45.75316" lon="-1.1283">
        <ele>11.3</ele>
        <time>2012-11-15T15:45:34Z</time>
      </trkpt>
      <trkpt lat="45.75309" lon="-1.12807">
        <ele>11.3</ele>
        <time>2012-11-15T15:45:56Z</time>
      </trkpt>
      <trkpt lat="45.75304" lon="-1.12787">
        <ele>11.3</ele>
        <time>2012-11-15T15:46:08Z</time>
      </trkpt>
      <trkpt lat="45.75298" lon="-1.12768">
        <ele>11.3</ele>
        <time>2012-11-15T15:46:17Z</time>
      </trkpt>
      <trkpt lat="45.75295" lon="-1.12749">
        <ele>11.3</ele>
        <time>2012-11-15T15:46:26Z</time>
      </trkpt>
      <trkpt lat="45.75298" lon="-1.12724">
        <ele>11.3</ele>
        <time>2012-11-15T15:46:39Z</time>
      </trkpt>
      <trkpt lat="45.75306" lon="-1.12701">
        <ele>11.3</ele>
        <time>2012-11-15T15:46:54Z</time>
      </trkpt>
      <trkpt lat="45.75308" lon="-1.12681">
        <ele>11.3</ele>
        <time>2012-11-15T15:47:08Z</time>
      </trkpt>
      <trkpt lat="45.75302" lon="-1.12663">
        <ele>11.3</ele>
        <time>2012-11-15T15:47:20Z</time>
      </trkpt>
      <trkpt lat="45.75294" lon="-1.12647">
        <ele>11.4</ele>
        <time>2012-11-15T15:47:34Z</time>
      </trkpt>
      <trkpt lat="45.75284" lon="-1.12632">
        <ele>11.4</ele>
        <time>2012-11-15T15:47:44Z</time>
      </trkpt>
      <trkpt lat="45.75275" lon="-1.12617">
        <ele>11.4</ele>
        <time>2012-11-15T15:47:56Z</time>
      </trkpt>
      <trkpt lat="45.75265" lon="-1.12602">
        <ele>11.4</ele>
        <time>2012-11-15T15:48:08Z</time>
      </trkpt>
      <trkpt lat="45.75253" lon="-1.12592">
        <ele>11.4</ele>
        <time>2012-11-15T15:48:19Z</time>
      </trkpt>
      <trkpt lat="45.75243" lon="-1.12578">
        <ele>11.4</ele>
        <time>2012-11-15T15:48:35Z</time>
      </trkpt>
      <trkpt lat="45.75236" lon="-1.12561">
        <ele>11.4</ele>
        <time>2012-11-15T15:48:45Z</time>
      </trkpt>
      <trkpt lat="45.75225" lon="-1.12549">
        <ele>11.4</ele>
        <time>2012-11-15T15:48:59Z</time>
      </trkpt>
      <trkpt lat="45.75212" lon="-1.12556">
        <ele>11.4</ele>
        <time>2012-11-15T15:49:13Z</time>
      </trkpt>
      <trkpt lat="45.75199" lon="-1.12564">
        <ele>11.5</ele>
        <time>2012-11-15T15:49:24Z</time>
      </trkpt>
      <trkpt lat="45.75185" lon="-1.12558">
        <ele>11.5</ele>
        <time>2012-11-15T15:49:37Z</time>
      </trkpt>
      <trkpt lat="45.75175" lon="-1.12539">
        <ele>11.5</ele>
        <time>2012-11-15T15:49:50Z</time>
      </trkpt>
      <trkpt lat="45.75163" lon="-1.12523">
        <ele>11.5</ele>
        <time>2012-11-15T15:50:06Z</time>
      </trkpt>
      <trkpt lat="45.75146" lon="-1.12491">
        <ele>11.5</ele>
        <time>2012-11-15T15:50:24Z</time>
      </trkpt>
      <trkpt lat="45.75146" lon="-1.12491">
        <ele>11.6</ele>
        <time>2012-11-15T15:51:33Z</time>
      </trkpt>
      <trkpt lat="45.75138" lon="-1.12475">
        <ele>11.6</ele>
        <time>2012-11-15T15:51:37Z</time>
      </trkpt>
      <trkpt lat="45.7513" lon="-1.12455">
        <ele>11.6</ele>
        <time>2012-11-15T15:51:49Z</time>
      </trkpt>
      <trkpt lat="45.75122" lon="-1.12438">
        <ele>11.6</ele>
        <time>2012-11-15T15:52:06Z</time>
      </trkpt>
      <trkpt lat="45.75115" lon="-1.12416">
        <ele>11.6</ele>
        <time>2012-11-15T15:52:19Z</time>
      </trkpt>
      <trkpt lat="45.75107" lon="-1.124">
        <ele>11.6</ele>
        <time>2012-11-15T15:52:33Z</time>
      </trkpt>
      <trkpt lat="45.75098" lon="-1.12385">
        <ele>11.6</ele>
        <time>2012-11-15T15:52:49Z</time>
      </trkpt>
      <trkpt lat="45.75089" lon="-1.12371">
        <ele>11.6</ele>
        <time>2012-11-15T15:53:05Z</time>
      </trkpt>
      <trkpt lat="45.75079" lon="-1.12355">
        <ele>11.7</ele>
        <time>2012-11-15T15:53:16Z</time>
      </trkpt>
      <trkpt lat="45.75071" lon="-1.12339">
        <ele>11.7</ele>
        <time>2012-11-15T15:53:29Z</time>
      </trkpt>
      <trkpt lat="45.7506" lon="-1.12324">
        <ele>11.7</ele>
        <time>2012-11-15T15:53:43Z</time>
      </trkpt>
      <trkpt lat="45.75047" lon="-1.12312">
        <ele>11.7</ele>
        <time>2012-11-15T15:53:58Z</time>
      </trkpt>
      <trkpt lat="45.75037" lon="-1.12298">
        <ele>11.7</ele>
        <time>2012-11-15T15:54:13Z</time>
      </trkpt>
      <trkpt lat="45.75026" lon="-1.1228">
        <ele>11.7</ele>
        <time>2012-11-15T15:54:29Z</time>
      </trkpt>
      <trkpt lat="45.75012" lon="-1.12266">
        <ele>11.7</ele>
        <time>2012-11-15T15:54:42Z</time>
      </trkpt>
      <trkpt lat="45.75004" lon="-1.1225">
        <ele>11.7</ele>
        <time>2012-11-15T15:54:53Z</time>
      </trkpt>
      <trkpt lat="45.74994" lon="-1.12236">
        <ele>11.8</ele>
        <time>2012-11-15T15:55:06Z</time>
      </trkpt>
      <trkpt lat="45.74983" lon="-1.12222">
        <ele>11.8</ele>
        <time>2012-11-15T15:55:18Z</time>
      </trkpt>
      <trkpt lat="45.74971" lon="-1.12208">
        <ele>11.8</ele>
        <time>2012-11-15T15:55:31Z</time>
      </trkpt>
      <trkpt lat="45.74961" lon="-1.12194">
        <ele>11.8</ele>
        <time>2012-11-15T15:55:44Z</time>
      </trkpt>
      <trkpt lat="45.74937" lon="-1.12168">
        <ele>11.8</ele>
        <time>2012-11-15T15:55:59Z</time>
      </trkpt>
      <trkpt lat="45.74937" lon="-1.12168">
        <ele>11.8</ele>
        <time>2012-11-15T15:56:39Z</time>
      </trkpt>
      <trkpt lat="45.7491" lon="-1.12134">
        <ele>11.8</ele>
        <time>2012-11-15T15:56:54Z</time>
      </trkpt>
      <trkpt lat="45.7491" lon="-1.12134">
        <ele>11.9</ele>
        <time>2012-11-15T15:58:08Z</time>
      </trkpt>
      <trkpt lat="45.74895" lon="-1.12114">
        <ele>11.9</ele>
        <time>2012-11-15T15:58:19Z</time>
      </trkpt>
      <trkpt lat="45.74887" lon="-1.12096">
        <ele>11.9</ele>
        <time>2012-11-15T15:58:35Z</time>
      </trkpt>
      <trkpt lat="45.74878" lon="-1.12082">
        <ele>11.9</ele>
        <time>2012-11-15T15:58:46Z</time>
      </trkpt>
      <trkpt lat="45.7487" lon="-1.12065">
        <ele>12</ele>
        <time>2012-11-15T15:58:58Z</time>
      </trkpt>
      <trkpt lat="45.74859" lon="-1.12052">
        <ele>12</ele>
        <time>2012-11-15T15:59:10Z</time>
      </trkpt>
      <trkpt lat="45.74849" lon="-1.1204">
        <ele>12</ele>
        <time>2012-11-15T15:59:23Z</time>
      </trkpt>
      <trkpt lat="45.74837" lon="-1.12026">
        <ele>12</ele>
        <time>2012-11-15T15:59:34Z</time>
      </trkpt>
      <trkpt lat="45.74822" lon="-1.12013">
        <ele>12</ele>
        <time>2012-11-15T15:59:48Z</time>
      </trkpt>
      <trkpt lat="45.74809" lon="-1.12002">
        <ele>12</ele>
        <time>2012-11-15T16:00:01Z</time>
      </trkpt>
      <trkpt lat="45.74796" lon="-1.11991">
        <ele>12</ele>
        <time>2012-11-15T16:00:14Z</time>
      </trkpt>
      <trkpt lat="45.74783" lon="-1.11981">
        <ele>12</ele>
        <time>2012-11-15T16:00:26Z</time>
      </trkpt>
      <trkpt lat="45.74769" lon="-1.11971">
        <ele>12</ele>
        <time>2012-11-15T16:00:37Z</time>
      </trkpt>
      <trkpt lat="45.74759" lon="-1.11958">
        <ele>12</ele>
        <time>2012-11-15T16:00:49Z</time>
      </trkpt>
      <trkpt lat="45.74748" lon="-1.11941">
        <ele>12.1</ele>
        <time>2012-11-15T16:01:00Z</time>
      </trkpt>
      <trkpt lat="45.74742" lon="-1.11922">
        <ele>12.1</ele>
        <time>2012-11-15T16:01:15Z</time>
      </trkpt>
      <trkpt lat="45.74738" lon="-1.11903">
        <ele>12.1</ele>
        <time>2012-11-15T16:01:28Z</time>
      </trkpt>
      <trkpt lat="45.74734" lon="-1.11884">
        <ele>12.1</ele>
        <time>2012-11-15T16:01:40Z</time>
      </trkpt>
      <trkpt lat="45.74727" lon="-1.11864">
        <ele>12.1</ele>
        <time>2012-11-15T16:01:52Z</time>
      </trkpt>
      <trkpt lat="45.74717" lon="-1.11847">
        <ele>12.1</ele>
        <time>2012-11-15T16:02:05Z</time>
      </trkpt>
      <trkpt lat="45.74706" lon="-1.11834">
        <ele>12.1</ele>
        <time>2012-11-15T16:02:19Z</time>
      </trkpt>
      <trkpt lat="45.74696" lon="-1.11822">
        <ele>12.1</ele>
        <time>2012-11-15T16:02:31Z</time>
      </trkpt>
      <trkpt lat="45.74683" lon="-1.11811">
        <ele>12.1</ele>
        <time>2012-11-15T16:02:45Z</time>
      </trkpt>
      <trkpt lat="45.7467" lon="-1.11801">
        <ele>12.2</ele>
        <time>2012-11-15T16:02:58Z</time>
      </trkpt>
      <trkpt lat="45.74657" lon="-1.11792">
        <ele>12.2</ele>
        <time>2012-11-15T16:03:13Z</time>
      </trkpt>
      <trkpt lat="45.74645" lon="-1.11781">
        <ele>12.2</ele>
        <time>2012-11-15T16:03:27Z</time>
      </trkpt>
      <trkpt lat="45.74633" lon="-1.11768">
        <ele>12.2</ele>
        <time>2012-11-15T16:03:39Z</time>
      </trkpt>
      <trkpt lat="45.7462" lon="-1.11753">
        <ele>12.2</ele>
        <time>2012-11-15T16:03:52Z</time>
      </trkpt>
      <trkpt lat="45.7461" lon="-1.11739">
        <ele>12.2</ele>
        <time>2012-11-15T16:04:05Z</time>
      </trkpt>
      <trkpt lat="45.74598" lon="-1.11728">
        <ele>12.2</ele>
        <time>2012-11-15T16:04:16Z</time>
      </trkpt>
      <trkpt lat="45.74586" lon="-1.11716">
        <ele>12.2</ele>
        <time>2012-11-15T16:04:29Z</time>
      </trkpt>
      <trkpt lat="45.74574" lon="-1.11705">
        <ele>12.3</ele>
        <time>2012-11-15T16:04:42Z</time>
      </trkpt>
      <trkpt lat="45.74563" lon="-1.11692">
        <ele>12.3</ele>
        <time>2012-11-15T16:04:55Z</time>
      </trkpt>
      <trkpt lat="45.74553" lon="-1.11678">
        <ele>12.3</ele>
        <time>2012-11-15T16:05:07Z</time>
      </trkpt>
      <trkpt lat="45.74542" lon="-1.11666">
        <ele>12.3</ele>
        <time>2012-11-15T16:05:17Z</time>
      </trkpt>
      <trkpt lat="45.74532" lon="-1.11653">
        <ele>12.3</ele>
        <time>2012-11-15T16:05:29Z</time>
      </trkpt>
      <trkpt lat="45.74522" lon="-1.1164">
        <ele>12.3</ele>
        <time>2012-11-15T16:05:55Z</time>
      </trkpt>
      <trkpt lat="45.74513" lon="-1.11624">
        <ele>12.3</ele>
        <time>2012-11-15T16:06:07Z</time>
      </trkpt>
      <trkpt lat="45.74506" lon="-1.11607">
        <ele>12.3</ele>
        <time>2012-11-15T16:06:20Z</time>
      </trkpt>
      <trkpt lat="45.74498" lon="-1.11592">
        <ele>12.3</ele>
        <time>2012-11-15T16:06:31Z</time>
      </trkpt>
      <trkpt lat="45.74489" lon="-1.11575">
        <ele>12.4</ele>
        <time>2012-11-15T16:06:44Z</time>
      </trkpt>
      <trkpt lat="45.74481" lon="-1.11559">
        <ele>12.4</ele>
        <time>2012-11-15T16:06:57Z</time>
      </trkpt>
      <trkpt lat="45.74474" lon="-1.11542">
        <ele>12.4</ele>
        <time>2012-11-15T16:07:08Z</time>
      </trkpt>
      <trkpt lat="45.74467" lon="-1.11525">
        <ele>12.4</ele>
        <time>2012-11-15T16:07:20Z</time>
      </trkpt>
      <trkpt lat="45.74461" lon="-1.11507">
        <ele>12.4</ele>
        <time>2012-11-15T16:07:34Z</time>
      </trkpt>
      <trkpt lat="45.74457" lon="-1.11488">
        <ele>12.4</ele>
        <time>2012-11-15T16:07:51Z</time>
      </trkpt>
      <trkpt lat="45.74451" lon="-1.11465">
        <ele>12.4</ele>
        <time>2012-11-15T16:08:11Z</time>
      </trkpt>
      <trkpt lat="45.74443" lon="-1.11447">
        <ele>12.4</ele>
        <time>2012-11-15T16:08:17Z</time>
      </trkpt>
      <trkpt lat="45.74429" lon="-1.1145">
        <ele>12.4</ele>
        <time>2012-11-15T16:08:26Z</time>
      </trkpt>
      <trkpt lat="45.74415" lon="-1.11456">
        <ele>12.5</ele>
        <time>2012-11-15T16:08:38Z</time>
      </trkpt>
      <trkpt lat="45.74402" lon="-1.11461">
        <ele>12.5</ele>
        <time>2012-11-15T16:08:51Z</time>
      </trkpt>
      <trkpt lat="45.74387" lon="-1.11461">
        <ele>12.5</ele>
        <time>2012-11-15T16:09:01Z</time>
      </trkpt>
      <trkpt lat="45.74373" lon="-1.11465">
        <ele>12.5</ele>
        <time>2012-11-15T16:09:13Z</time>
      </trkpt>
      <trkpt lat="45.74359" lon="-1.11468">
        <ele>12.5</ele>
        <time>2012-11-15T16:09:23Z</time>
      </trkpt>
      <trkpt lat="45.74344" lon="-1.1147">
        <ele>12.5</ele>
        <time>2012-11-15T16:09:37Z</time>
      </trkpt>
      <trkpt lat="45.74331" lon="-1.11475">
        <ele>12.5</ele>
        <time>2012-11-15T16:09:48Z</time>
      </trkpt>
      <trkpt lat="45.74314" lon="-1.11481">
        <ele>12.5</ele>
        <time>2012-11-15T16:09:59Z</time>
      </trkpt>
      <trkpt lat="45.74299" lon="-1.11487">
        <ele>12.5</ele>
        <time>2012-11-15T16:10:15Z</time>
      </trkpt>
      <trkpt lat="45.74285" lon="-1.11491">
        <ele>12.6</ele>
        <time>2012-11-15T16:10:28Z</time>
      </trkpt>
      <trkpt lat="45.7427" lon="-1.11492">
        <ele>12.6</ele>
        <time>2012-11-15T16:10:40Z</time>
      </trkpt>
      <trkpt lat="45.74254" lon="-1.11498">
        <ele>12.6</ele>
        <time>2012-11-15T16:10:52Z</time>
      </trkpt>
      <trkpt lat="45.74239" lon="-1.11507">
        <ele>12.6</ele>
        <time>2012-11-15T16:11:08Z</time>
      </trkpt>
      <trkpt lat="45.74221" lon="-1.11513">
        <ele>12.6</ele>
        <time>2012-11-15T16:11:22Z</time>
      </trkpt>
      <trkpt lat="45.74206" lon="-1.11516">
        <ele>12.6</ele>
        <time>2012-11-15T16:11:36Z</time>
      </trkpt>
      <trkpt lat="45.74193" lon="-1.11516">
        <ele>12.6</ele>
        <time>2012-11-15T16:11:45Z</time>
      </trkpt>
      <trkpt lat="45.74188" lon="-1.11502">
        <ele>12.6</ele>
        <time>2012-11-15T16:12:00Z</time>
      </trkpt>
      <trkpt lat="45.74189" lon="-1.11471">
        <ele>12.6</ele>
        <time>2012-11-15T16:12:01Z</time>
      </trkpt>
      <trkpt lat="45.74193" lon="-1.11464">
        <ele>12.6</ele>
        <time>2012-11-15T16:12:02Z</time>
      </trkpt>
      <trkpt lat="45.74193" lon="-1.11452">
        <ele>12.6</ele>
        <time>2012-11-15T16:12:10Z</time>
      </trkpt>
      <trkpt lat="45.74183" lon="-1.11449">
        <ele>12.7</ele>
        <time>2012-11-15T16:12:59Z</time>
      </trkpt>
      <trkpt lat="45.74183" lon="-1.11449">
        <ele>12.8</ele>
        <time>2012-11-15T16:14:25Z</time>
      </trkpt>
      <trkpt lat="45.74176" lon="-1.1143">
        <ele>12.8</ele>
        <time>2012-11-15T16:14:31Z</time>
      </trkpt>
      <trkpt lat="45.7417" lon="-1.11411">
        <ele>12.8</ele>
        <time>2012-11-15T16:14:48Z</time>
      </trkpt>
      <trkpt lat="45.74166" lon="-1.11392">
        <ele>12.8</ele>
        <time>2012-11-15T16:15:02Z</time>
      </trkpt>
      <trkpt lat="45.7416" lon="-1.11374">
        <ele>12.8</ele>
        <time>2012-11-15T16:15:14Z</time>
      </trkpt>
      <trkpt lat="45.74156" lon="-1.11355">
        <ele>12.8</ele>
        <time>2012-11-15T16:15:27Z</time>
      </trkpt>
      <trkpt lat="45.7415" lon="-1.11332">
        <ele>12.8</ele>
        <time>2012-11-15T16:15:40Z</time>
      </trkpt>
      <trkpt lat="45.74145" lon="-1.11314">
        <ele>12.8</ele>
        <time>2012-11-15T16:15:57Z</time>
      </trkpt>
      <trkpt lat="45.74139" lon="-1.11295">
        <ele>12.8</ele>
        <time>2012-11-15T16:16:10Z</time>
      </trkpt>
      <trkpt lat="45.74132" lon="-1.11277">
        <ele>12.9</ele>
        <time>2012-11-15T16:16:24Z</time>
      </trkpt>
      <trkpt lat="45.7413" lon="-1.11257">
        <ele>12.9</ele>
        <time>2012-11-15T16:16:41Z</time>
      </trkpt>
      <trkpt lat="45.74124" lon="-1.11236">
        <ele>12.9</ele>
        <time>2012-11-15T16:16:56Z</time>
      </trkpt>
      <trkpt lat="45.74111" lon="-1.1123">
        <ele>12.9</ele>
        <time>2012-11-15T16:17:07Z</time>
      </trkpt>
      <trkpt lat="45.74099" lon="-1.1124">
        <ele>12.9</ele>
        <time>2012-11-15T16:17:18Z</time>
      </trkpt>
      <trkpt lat="45.74087" lon="-1.11247">
        <ele>12.9</ele>
        <time>2012-11-15T16:17:32Z</time>
      </trkpt>
      <trkpt lat="45.74074" lon="-1.11257">
        <ele>12.9</ele>
        <time>2012-11-15T16:17:45Z</time>
      </trkpt>
      <trkpt lat="45.74062" lon="-1.11265">
        <ele>12.9</ele>
        <time>2012-11-15T16:17:55Z</time>
      </trkpt>
      <trkpt lat="45.74049" lon="-1.11273">
        <ele>12.9</ele>
        <time>2012-11-15T16:18:08Z</time>
      </trkpt>
      <trkpt lat="45.74044" lon="-1.11276">
        <ele>13</ele>
        <time>2012-11-15T16:18:12Z</time>
      </trkpt>
      <trkpt lat="45.74031" lon="-1.11267">
        <ele>13</ele>
        <time>2012-11-15T16:18:13Z</time>
      </trkpt>
      <trkpt lat="45.74027" lon="-1.1127">
        <ele>13</ele>
        <time>2012-11-15T16:18:14Z</time>
      </trkpt>
      <trkpt lat="45.74017" lon="-1.11283">
        <ele>13</ele>
        <time>2012-11-15T16:18:29Z</time>
      </trkpt>
      <trkpt lat="45.74005" lon="-1.11294">
        <ele>13</ele>
        <time>2012-11-15T16:18:41Z</time>
      </trkpt>
      <trkpt lat="45.73992" lon="-1.11298">
        <ele>13</ele>
        <time>2012-11-15T16:18:52Z</time>
      </trkpt>
      <trkpt lat="45.73975" lon="-1.11308">
        <ele>13</ele>
        <time>2012-11-15T16:19:06Z</time>
      </trkpt>
      <trkpt lat="45.73964" lon="-1.1132">
        <ele>13</ele>
        <time>2012-11-15T16:19:35Z</time>
      </trkpt>
      <trkpt lat="45.73955" lon="-1.11336">
        <ele>13</ele>
        <time>2012-11-15T16:19:48Z</time>
      </trkpt>
      <trkpt lat="45.73945" lon="-1.1135">
        <ele>13</ele>
        <time>2012-11-15T16:19:59Z</time>
      </trkpt>
      <trkpt lat="45.73933" lon="-1.11361">
        <ele>13.1</ele>
        <time>2012-11-15T16:20:10Z</time>
      </trkpt>
      <trkpt lat="45.73921" lon="-1.11372">
        <ele>13.1</ele>
        <time>2012-11-15T16:20:21Z</time>
      </trkpt>
      <trkpt lat="45.73907" lon="-1.11379">
        <ele>13.1</ele>
        <time>2012-11-15T16:20:35Z</time>
      </trkpt>
      <trkpt lat="45.73894" lon="-1.11387">
        <ele>13.1</ele>
        <time>2012-11-15T16:20:47Z</time>
      </trkpt>
      <trkpt lat="45.73879" lon="-1.11396">
        <ele>13.1</ele>
        <time>2012-11-15T16:21:00Z</time>
      </trkpt>
      <trkpt lat="45.73867" lon="-1.11403">
        <ele>13.1</ele>
        <time>2012-11-15T16:21:14Z</time>
      </trkpt>
      <trkpt lat="45.7385" lon="-1.11415">
        <ele>13.1</ele>
        <time>2012-11-15T16:21:26Z</time>
      </trkpt>
      <trkpt lat="45.73838" lon="-1.11425">
        <ele>13.1</ele>
        <time>2012-11-15T16:21:42Z</time>
      </trkpt>
      <trkpt lat="45.73827" lon="-1.11438">
        <ele>13.1</ele>
        <time>2012-11-15T16:21:54Z</time>
      </trkpt>
      <trkpt lat="45.73814" lon="-1.11446">
        <ele>13.2</ele>
        <time>2012-11-15T16:22:05Z</time>
      </trkpt>
      <trkpt lat="45.73799" lon="-1.11452">
        <ele>13.2</ele>
        <time>2012-11-15T16:22:17Z</time>
      </trkpt>
      <trkpt lat="45.73787" lon="-1.11462">
        <ele>13.2</ele>
        <time>2012-11-15T16:22:32Z</time>
      </trkpt>
      <trkpt lat="45.73774" lon="-1.11472">
        <ele>13.2</ele>
        <time>2012-11-15T16:22:44Z</time>
      </trkpt>
      <trkpt lat="45.73763" lon="-1.11483">
        <ele>13.2</ele>
        <time>2012-11-15T16:22:55Z</time>
      </trkpt>
      <trkpt lat="45.73752" lon="-1.11474">
        <ele>13.2</ele>
        <time>2012-11-15T16:23:11Z</time>
      </trkpt>
      <trkpt lat="45.73747" lon="-1.1146">
        <ele>13.2</ele>
        <time>2012-11-15T16:23:27Z</time>
      </trkpt>
      <trkpt lat="45.73746" lon="-1.11446">
        <ele>13.3</ele>
        <time>2012-11-15T16:23:57Z</time>
      </trkpt>
      <trkpt lat="45.73746" lon="-1.11446">
        <ele>13.3</ele>
        <time>2012-11-15T16:25:16Z</time>
      </trkpt>
      <trkpt lat="45.73746" lon="-1.11453">
        <ele>13.3</ele>
        <time>2012-11-15T16:25:24Z</time>
      </trkpt>
      <trkpt lat="45.7376" lon="-1.11482">
        <ele>13.3</ele>
        <time>2012-11-15T16:25:41Z</time>
      </trkpt>
      <trkpt lat="45.7376" lon="-1.11482">
        <ele>13.4</ele>
        <time>2012-11-15T16:26:19Z</time>
      </trkpt>
      <trkpt lat="45.73765" lon="-1.11494">
        <ele>13.4</ele>
        <time>2012-11-15T16:26:20Z</time>
      </trkpt>
      <trkpt lat="45.73772" lon="-1.11512">
        <ele>13.4</ele>
        <time>2012-11-15T16:26:28Z</time>
      </trkpt>
      <trkpt lat="45.73781" lon="-1.11528">
        <ele>13.4</ele>
        <time>2012-11-15T16:26:37Z</time>
      </trkpt>
      <trkpt lat="45.7379" lon="-1.11544">
        <ele>13.4</ele>
        <time>2012-11-15T16:26:47Z</time>
      </trkpt>
      <trkpt lat="45.73798" lon="-1.11561">
        <ele>13.4</ele>
        <time>2012-11-15T16:26:56Z</time>
      </trkpt>
      <trkpt lat="45.73806" lon="-1.11579">
        <ele>13.4</ele>
        <time>2012-11-15T16:27:05Z</time>
      </trkpt>
      <trkpt lat="45.73814" lon="-1.11596">
        <ele>13.4</ele>
        <time>2012-11-15T16:27:14Z</time>
      </trkpt>
      <trkpt lat="45.73821" lon="-1.11613">
        <ele>13.4</ele>
        <time>2012-11-15T16:27:24Z</time>
      </trkpt>
      <trkpt lat="45.73828" lon="-1.11633">
        <ele>13.4</ele>
        <time>2012-11-15T16:27:33Z</time>
      </trkpt>
      <trkpt lat="45.73836" lon="-1.11652">
        <ele>13.4</ele>
        <time>2012-11-15T16:27:44Z</time>
      </trkpt>
      <trkpt lat="45.73844" lon="-1.11671">
        <ele>13.5</ele>
        <time>2012-11-15T16:27:54Z</time>
      </trkpt>
      <trkpt lat="45.73852" lon="-1.11686">
        <ele>13.5</ele>
        <time>2012-11-15T16:28:03Z</time>
      </trkpt>
      <trkpt lat="45.73858" lon="-1.11706">
        <ele>13.5</ele>
        <time>2012-11-15T16:28:14Z</time>
      </trkpt>
      <trkpt lat="45.73864" lon="-1.11724">
        <ele>13.5</ele>
        <time>2012-11-15T16:28:24Z</time>
      </trkpt>
      <trkpt lat="45.73871" lon="-1.11742">
        <ele>13.5</ele>
        <time>2012-11-15T16:28:33Z</time>
      </trkpt>
      <trkpt lat="45.73876" lon="-1.11762">
        <ele>13.5</ele>
        <time>2012-11-15T16:28:43Z</time>
      </trkpt>
      <trkpt lat="45.73883" lon="-1.11781">
        <ele>13.5</ele>
        <time>2012-11-15T16:28:53Z</time>
      </trkpt>
      <trkpt lat="45.73889" lon="-1.11799">
        <ele>13.5</ele>
        <time>2012-11-15T16:29:05Z</time>
      </trkpt>
      <trkpt lat="45.73895" lon="-1.11819">
        <ele>13.5</ele>
        <time>2012-11-15T16:29:15Z</time>
      </trkpt>
      <trkpt lat="45.739" lon="-1.11837">
        <ele>13.5</ele>
        <time>2012-11-15T16:29:24Z</time>
      </trkpt>
      <trkpt lat="45.73907" lon="-1.11855">
        <ele>13.5</ele>
        <time>2012-11-15T16:29:33Z</time>
      </trkpt>
      <trkpt lat="45.73911" lon="-1.11874">
        <ele>13.6</ele>
        <time>2012-11-15T16:29:43Z</time>
      </trkpt>
      <trkpt lat="45.73917" lon="-1.11894">
        <ele>13.6</ele>
        <time>2012-11-15T16:29:52Z</time>
      </trkpt>
      <trkpt lat="45.73922" lon="-1.11914">
        <ele>13.6</ele>
        <time>2012-11-15T16:30:01Z</time>
      </trkpt>
      <trkpt lat="45.73929" lon="-1.11934">
        <ele>13.6</ele>
        <time>2012-11-15T16:30:11Z</time>
      </trkpt>
      <trkpt lat="45.73934" lon="-1.11952">
        <ele>13.6</ele>
        <time>2012-11-15T16:30:20Z</time>
      </trkpt>
      <trkpt lat="45.73945" lon="-1.11966">
        <ele>13.6</ele>
        <time>2012-11-15T16:30:32Z</time>
      </trkpt>
      <trkpt lat="45.7396" lon="-1.11963">
        <ele>13.6</ele>
        <time>2012-11-15T16:30:51Z</time>
      </trkpt>
      <trkpt lat="45.73973" lon="-1.11957">
        <ele>13.6</ele>
        <time>2012-11-15T16:31:02Z</time>
      </trkpt>
      <trkpt lat="45.73987" lon="-1.1195">
        <ele>13.6</ele>
        <time>2012-11-15T16:31:11Z</time>
      </trkpt>
      <trkpt lat="45.74001" lon="-1.11942">
        <ele>13.6</ele>
        <time>2012-11-15T16:31:20Z</time>
      </trkpt>
      <trkpt lat="45.74014" lon="-1.11934">
        <ele>13.6</ele>
        <time>2012-11-15T16:31:31Z</time>
      </trkpt>
      <trkpt lat="45.74031" lon="-1.11936">
        <ele>13.7</ele>
        <time>2012-11-15T16:31:40Z</time>
      </trkpt>
      <trkpt lat="45.74042" lon="-1.1195">
        <ele>13.7</ele>
        <time>2012-11-15T16:31:51Z</time>
      </trkpt>
      <trkpt lat="45.74052" lon="-1.11973">
        <ele>13.7</ele>
        <time>2012-11-15T16:32:00Z</time>
      </trkpt>
      <trkpt lat="45.7406" lon="-1.11989">
        <ele>13.7</ele>
        <time>2012-11-15T16:32:14Z</time>
      </trkpt>
      <trkpt lat="45.74072" lon="-1.11998">
        <ele>13.7</ele>
        <time>2012-11-15T16:32:29Z</time>
      </trkpt>
      <trkpt lat="45.74089" lon="-1.11994">
        <ele>13.7</ele>
        <time>2012-11-15T16:32:41Z</time>
      </trkpt>
      <trkpt lat="45.74103" lon="-1.11986">
        <ele>13.7</ele>
        <time>2012-11-15T16:32:52Z</time>
      </trkpt>
      <trkpt lat="45.7412" lon="-1.11988">
        <ele>13.7</ele>
        <time>2012-11-15T16:33:07Z</time>
      </trkpt>
      <trkpt lat="45.74132" lon="-1.11997">
        <ele>13.7</ele>
        <time>2012-11-15T16:33:13Z</time>
      </trkpt>
      <trkpt lat="45.74138" lon="-1.12016">
        <ele>13.7</ele>
        <time>2012-11-15T16:33:23Z</time>
      </trkpt>
      <trkpt lat="45.74135" lon="-1.12037">
        <ele>13.8</ele>
        <time>2012-11-15T16:33:34Z</time>
      </trkpt>
      <trkpt lat="45.74134" lon="-1.12057">
        <ele>13.8</ele>
        <time>2012-11-15T16:33:43Z</time>
      </trkpt>
      <trkpt lat="45.74133" lon="-1.12078">
        <ele>13.8</ele>
        <time>2012-11-15T16:33:55Z</time>
      </trkpt>
      <trkpt lat="45.74132" lon="-1.12099">
        <ele>13.8</ele>
        <time>2012-11-15T16:34:07Z</time>
      </trkpt>
      <trkpt lat="45.74128" lon="-1.12119">
        <ele>13.8</ele>
        <time>2012-11-15T16:34:20Z</time>
      </trkpt>
      <trkpt lat="45.74123" lon="-1.12144">
        <ele>13.8</ele>
        <time>2012-11-15T16:34:31Z</time>
      </trkpt>
      <trkpt lat="45.74119" lon="-1.12162">
        <ele>13.8</ele>
        <time>2012-11-15T16:34:44Z</time>
      </trkpt>
      <trkpt lat="45.74118" lon="-1.12183">
        <ele>13.8</ele>
        <time>2012-11-15T16:34:54Z</time>
      </trkpt>
      <trkpt lat="45.7412" lon="-1.12203">
        <ele>13.8</ele>
        <time>2012-11-15T16:35:03Z</time>
      </trkpt>
      <trkpt lat="45.74121" lon="-1.12224">
        <ele>13.8</ele>
        <time>2012-11-15T16:35:15Z</time>
      </trkpt>
      <trkpt lat="45.74123" lon="-1.12244">
        <ele>13.8</ele>
        <time>2012-11-15T16:35:25Z</time>
      </trkpt>
      <trkpt lat="45.74125" lon="-1.12265">
        <ele>13.9</ele>
        <time>2012-11-15T16:35:35Z</time>
      </trkpt>
      <trkpt lat="45.74129" lon="-1.12284">
        <ele>13.9</ele>
        <time>2012-11-15T16:35:47Z</time>
      </trkpt>
      <trkpt lat="45.74128" lon="-1.12304">
        <ele>13.9</ele>
        <time>2012-11-15T16:35:57Z</time>
      </trkpt>
      <trkpt lat="45.74125" lon="-1.12323">
        <ele>13.9</ele>
        <time>2012-11-15T16:36:04Z</time>
      </trkpt>
      <trkpt lat="45.74119" lon="-1.12344">
        <ele>13.9</ele>
        <time>2012-11-15T16:36:16Z</time>
      </trkpt>
      <trkpt lat="45.74121" lon="-1.12364">
        <ele>13.9</ele>
        <time>2012-11-15T16:36:28Z</time>
      </trkpt>
      <trkpt lat="45.74125" lon="-1.12384">
        <ele>13.9</ele>
        <time>2012-11-15T16:36:39Z</time>
      </trkpt>
      <trkpt lat="45.74122" lon="-1.12403">
        <ele>13.9</ele>
        <time>2012-11-15T16:36:51Z</time>
      </trkpt>
      <trkpt lat="45.7412" lon="-1.1243">
        <ele>13.9</ele>
        <time>2012-11-15T16:37:04Z</time>
      </trkpt>
      <trkpt lat="45.74121" lon="-1.1245">
        <ele>13.9</ele>
        <time>2012-11-15T16:37:17Z</time>
      </trkpt>
      <trkpt lat="45.74123" lon="-1.1247">
        <ele>14</ele>
        <time>2012-11-15T16:37:28Z</time>
      </trkpt>
      <trkpt lat="45.74125" lon="-1.12479">
        <ele>14</ele>
        <time>2012-11-15T16:37:33Z</time>
      </trkpt>
      <trkpt lat="45.74129" lon="-1.12481">
        <ele>14</ele>
        <time>2012-11-15T16:37:40Z</time>
      </trkpt>
      <trkpt lat="45.74125" lon="-1.12494">
        <ele>14</ele>
        <time>2012-11-15T16:37:52Z</time>
      </trkpt>
      <trkpt lat="45.74138" lon="-1.1251">
        <ele>14</ele>
        <time>2012-11-15T16:38:16Z</time>
      </trkpt>
      <trkpt lat="45.74138" lon="-1.1251">
        <ele>14.1</ele>
        <time>2012-11-15T16:40:28Z</time>
      </trkpt>
      <trkpt lat="45.74143" lon="-1.12509">
        <ele>14.1</ele>
        <time>2012-11-15T16:40:29Z</time>
      </trkpt>
      <trkpt lat="45.74137" lon="-1.12491">
        <ele>14.1</ele>
        <time>2012-11-15T16:40:33Z</time>
      </trkpt>
      <trkpt lat="45.74137" lon="-1.12479">
        <ele>14.1</ele>
        <time>2012-11-15T16:40:37Z</time>
      </trkpt>
      <trkpt lat="45.74151" lon="-1.12465">
        <ele>14.1</ele>
        <time>2012-11-15T16:40:40Z</time>
      </trkpt>
      <trkpt lat="45.74163" lon="-1.12456">
        <ele>14.1</ele>
        <time>2012-11-15T16:40:42Z</time>
      </trkpt>
      <trkpt lat="45.74207" lon="-1.12426">
        <ele>14.1</ele>
        <time>2012-11-15T16:40:53Z</time>
      </trkpt>
      <trkpt lat="45.74207" lon="-1.12426">
        <ele>14.1</ele>
        <time>2012-11-15T16:41:03Z</time>
      </trkpt>
    </trkseg>
  </trk>
</gpx>